Time,TemperatureF,DewpointF,PressureIn,WindDirection,WindDirectionDegrees,WindSpeedMPH,WindSpeedGustMPH,Humidity,HourlyPrecipIn,Conditions,Clouds,dailyrainin,SoftwareType,DateUTC
2013-01-28 00:02:00,27.4,21.7,30.51,SSE,148,0.0,2.0,79,0.00,,,0.05,Wunderground v.1.15,2013-01-28 05:02:00,
2013-01-28 00:03:00,27.4,22.0,30.51,ENE,67,0.0,2.0,80,0.00,,,0.05,Wunderground v.1.15,2013-01-28 05:03:00,
2013-01-28 00:04:00,27.4,22.0,30.51,ENE,67,0.0,2.0,80,0.00,,,0.05,Wunderground v.1.15,2013-01-28 05:04:00,
2013-01-28 00:08:00,27.5,22.1,30.51,West,259,0.0,3.0,80,0.00,,,0.05,Wunderground v.1.15,2013-01-28 05:08:00,
2013-01-28 00:10:00,27.5,22.1,30.51,WSW,257,0.0,0.0,80,0.00,,,0.05,Wunderground v.1.15,2013-01-28 05:10:00,
2013-01-28 00:11:00,27.5,22.1,30.50,WSW,241,0.0,0.0,80,0.00,,,0.05,Wunderground v.1.15,2013-01-28 05:11:00,
2013-01-28 00:13:00,27.6,22.2,30.50,ESE,116,1.0,4.0,80,0.00,,,0.05,Wunderground v.1.15,2013-01-28 05:13:00,
2013-01-28 00:16:00,27.7,22.3,30.50,ESE,105,1.0,4.0,80,0.00,,,0.05,Wunderground v.1.15,2013-01-28 05:16:00,
2013-01-28 00:17:00,27.7,22.3,30.50,SW,221,1.0,4.0,80,0.00,,,0.05,Wunderground v.1.15,2013-01-28 05:17:00,
2013-01-28 00:19:00,27.8,22.4,30.50,SW,221,0.0,4.0,80,0.00,,,0.05,Wunderground v.1.15,2013-01-28 05:19:00,
2013-01-28 00:20:00,27.7,22.3,30.50,SSW,202,0.0,0.0,80,0.00,,,0.05,Wunderground v.1.15,2013-01-28 05:20:00,
2013-01-28 00:22:00,27.8,22.4,30.49,SSW,205,0.0,0.0,80,0.00,,,0.05,Wunderground v.1.15,2013-01-28 05:22:00,
2013-01-28 00:23:00,27.8,22.4,30.49,SSW,205,0.0,0.0,80,0.00,,,0.05,Wunderground v.1.15,2013-01-28 05:23:00,
2013-01-28 00:28:00,27.8,22.4,30.50,SSW,209,0.0,4.0,80,0.00,,,0.05,Wunderground v.1.15,2013-01-28 05:28:00,
2013-01-28 00:30:00,27.8,22.4,30.50,SW,229,0.0,0.0,80,0.00,,,0.05,Wunderground v.1.15,2013-01-28 05:30:00,
2013-01-28 00:31:00,27.8,22.4,30.50,SW,229,0.0,5.0,80,0.00,,,0.00,Wunderground v.1.15,2013-01-28 05:31:00,
2013-01-28 00:32:00,27.8,22.4,30.50,SW,229,0.0,5.0,80,0.00,,,0.00,Wunderground v.1.15,2013-01-28 05:32:00,
2013-01-28 00:35:00,27.7,22.3,30.50,WNW,291,1.0,5.0,80,0.00,,,0.00,Wunderground v.1.15,2013-01-28 05:35:00,
2013-01-28 00:36:00,27.6,22.2,30.50,WSW,251,1.0,5.0,80,0.00,,,0.00,Wunderground v.1.15,2013-01-28 05:36:00,
2013-01-28 00:38:00,27.6,22.2,30.50,WSW,248,0.0,5.0,80,0.00,,,0.00,Wunderground v.1.15,2013-01-28 05:38:00,
2013-01-28 00:40:00,27.5,22.1,30.50,SW,233,0.0,0.0,80,0.00,,,0.00,Wunderground v.1.15,2013-01-28 05:40:00,
2013-01-28 00:45:00,27.3,21.9,30.50,WSW,254,0.0,0.0,80,0.00,,,0.00,Wunderground v.1.15,2013-01-28 05:45:00,
2013-01-28 00:46:00,27.3,21.9,30.49,WSW,253,0.0,0.0,80,0.00,,,0.00,Wunderground v.1.15,2013-01-28 05:46:00,
2013-01-28 00:48:00,27.2,21.8,30.49,SW,222,0.0,3.0,80,0.00,,,0.00,Wunderground v.1.15,2013-01-28 05:48:00,
2013-01-28 00:50:00,27.2,21.8,30.49,SSE,150,0.0,0.0,80,0.00,,,0.00,Wunderground v.1.15,2013-01-28 05:50:00,
2013-01-28 00:52:00,27.1,21.7,30.49,SSW,204,0.0,0.0,80,0.00,,,0.00,Wunderground v.1.15,2013-01-28 05:52:00,
2013-01-28 00:54:00,27.1,21.7,30.48,South,183,0.0,0.0,80,0.00,,,0.00,Wunderground v.1.15,2013-01-28 05:54:00,
2013-01-28 00:55:00,27.1,21.7,30.48,SSE,160,0.0,0.0,80,0.00,,,0.00,Wunderground v.1.15,2013-01-28 05:55:00,
2013-01-28 00:57:00,27.1,21.7,30.48,SSE,158,0.0,0.0,80,0.00,,,0.00,Wunderground v.1.15,2013-01-28 05:57:00,
2013-01-28 01:00:00,27.2,22.1,30.48,SSW,208,0.0,0.0,81,0.00,,,0.00,Wunderground v.1.15,2013-01-28 06:00:00,
2013-01-28 01:01:00,27.2,22.1,30.49,SSW,204,0.0,5.0,81,0.00,,,0.00,Wunderground v.1.15,2013-01-28 06:01:00,
2013-01-28 01:02:00,27.2,22.1,30.49,SE,125,0.0,5.0,81,0.00,,,0.00,Wunderground v.1.15,2013-01-28 06:02:00,
2013-01-28 01:06:00,27.3,22.2,30.49,SSW,205,0.0,5.0,81,0.00,,,0.00,Wunderground v.1.15,2013-01-28 06:06:00,
2013-01-28 01:09:00,27.4,22.3,30.49,WSW,244,0.0,5.0,81,0.00,,,0.00,Wunderground v.1.15,2013-01-28 06:09:00,
2013-01-28 01:11:00,27.4,22.3,30.48,WSW,244,0.0,0.0,81,0.00,,,0.00,Wunderground v.1.15,2013-01-28 06:11:00,
2013-01-28 01:14:00,27.4,22.3,30.48,WSW,244,0.0,0.0,81,0.00,,,0.00,Wunderground v.1.15,2013-01-28 06:14:00,
2013-01-28 01:17:00,27.5,22.4,30.48,SSW,204,0.0,0.0,81,0.00,,,0.00,Wunderground v.1.15,2013-01-28 06:17:00,
2013-01-28 01:19:00,27.5,22.4,30.48,ESE,102,0.0,0.0,81,0.00,,,0.00,Wunderground v.1.15,2013-01-28 06:19:00,
2013-01-28 01:20:00,27.5,22.4,30.48,SSW,196,0.0,0.0,81,0.00,,,0.00,Wunderground v.1.15,2013-01-28 06:20:00,
2013-01-28 01:25:00,27.5,22.4,30.48,SSE,163,0.0,0.0,81,0.00,,,0.00,Wunderground v.1.15,2013-01-28 06:25:00,
2013-01-28 01:30:00,27.5,22.1,30.48,SSE,162,0.0,0.0,80,0.00,,,0.00,Wunderground v.1.15,2013-01-28 06:30:00,
2013-01-28 01:31:00,27.4,22.0,30.48,SSE,162,0.0,4.0,80,0.00,,,0.00,Wunderground v.1.15,2013-01-28 06:31:00,
2013-01-28 01:32:00,27.4,22.0,30.48,South,169,0.0,4.0,80,0.00,,,0.00,Wunderground v.1.15,2013-01-28 06:32:00,
2013-01-28 01:36:00,27.4,22.0,30.48,WSW,251,0.0,4.0,80,0.00,,,0.00,Wunderground v.1.15,2013-01-28 06:36:00,
2013-01-28 01:37:00,27.4,22.0,30.48,SSW,213,0.0,4.0,80,0.00,,,0.00,Wunderground v.1.15,2013-01-28 06:37:00,
2013-01-28 01:39:00,27.5,22.4,30.48,SW,214,0.0,4.0,81,0.00,,,0.00,Wunderground v.1.15,2013-01-28 06:39:00,
2013-01-28 01:42:00,27.5,22.4,30.48,WSW,242,0.0,2.0,81,0.00,,,0.00,Wunderground v.1.15,2013-01-28 06:42:00,
2013-01-28 01:45:00,27.6,22.5,30.48,WSW,242,0.0,2.0,81,0.00,,,0.00,Wunderground v.1.15,2013-01-28 06:45:00,
2013-01-28 01:46:00,27.6,22.5,30.48,WSW,241,0.0,2.0,81,0.00,,,0.00,Wunderground v.1.15,2013-01-28 06:46:00,
2013-01-28 01:51:00,27.6,22.2,30.48,South,186,0.0,0.0,80,0.00,,,0.00,Wunderground v.1.15,2013-01-28 06:51:00,
2013-01-28 01:52:00,27.6,22.2,30.48,South,172,0.0,1.0,80,0.00,,,0.00,Wunderground v.1.15,2013-01-28 06:52:00,
2013-01-28 01:55:00,27.6,22.2,30.48,SW,215,0.0,1.0,80,0.00,,,0.00,Wunderground v.1.15,2013-01-28 06:55:00,
2013-01-28 01:56:00,27.6,22.2,30.47,SW,215,0.0,1.0,80,0.00,,,0.00,Wunderground v.1.15,2013-01-28 06:56:00,
2013-01-28 02:00:00,27.6,22.2,30.47,SW,236,1.0,1.0,80,0.00,,,0.00,Wunderground v.1.15,2013-01-28 07:00:00,
2013-01-28 02:03:00,27.6,22.2,30.47,SW,236,0.0,6.0,80,0.00,,,0.00,Wunderground v.1.15,2013-01-28 07:03:00,
2013-01-28 02:06:00,27.6,22.2,30.47,SSW,207,0.0,6.0,80,0.00,,,0.00,Wunderground v.1.15,2013-01-28 07:06:00,
2013-01-28 02:07:00,27.6,22.2,30.47,SSW,206,0.0,6.0,80,0.00,,,0.00,Wunderground v.1.15,2013-01-28 07:07:00,
2013-01-28 02:08:00,27.6,22.2,30.47,SSW,209,0.0,6.0,80,0.00,,,0.00,Wunderground v.1.15,2013-01-28 07:08:00,
2013-01-28 02:09:00,27.6,22.2,30.47,SSW,209,0.0,6.0,80,0.00,,,0.00,Wunderground v.1.15,2013-01-28 07:09:00,
2013-01-28 02:14:00,27.7,22.3,30.46,SW,232,0.0,2.0,80,0.00,,,0.00,Wunderground v.1.15,2013-01-28 07:14:00,
2013-01-28 02:15:00,27.7,22.3,30.46,SSE,155,0.0,2.0,80,0.00,,,0.00,Wunderground v.1.15,2013-01-28 07:15:00,
2013-01-28 02:17:00,27.7,22.3,30.46,SSE,152,0.0,2.0,80,0.00,,,0.00,Wunderground v.1.15,2013-01-28 07:17:00,
2013-01-28 02:21:00,27.8,22.4,30.46,SE,144,0.0,0.0,80,0.00,,,0.00,Wunderground v.1.15,2013-01-28 07:21:00,
2013-01-28 02:24:00,27.8,22.4,30.46,ESE,111,0.0,2.0,80,0.00,,,0.00,Wunderground v.1.15,2013-01-28 07:24:00,
2013-01-28 02:26:00,27.8,22.1,30.46,ESE,114,0.0,5.0,79,0.00,,,0.00,Wunderground v.1.15,2013-01-28 07:26:00,
2013-01-28 02:29:00,27.8,22.1,30.46,South,175,1.0,5.0,79,0.00,,,0.00,Wunderground v.1.15,2013-01-28 07:29:00,
2013-01-28 02:31:00,27.8,22.1,30.46,SE,133,1.0,6.0,79,0.00,,,0.00,Wunderground v.1.15,2013-01-28 07:31:00,
2013-01-28 02:32:00,27.8,22.1,30.46,SE,133,1.0,6.0,79,0.00,,,0.00,Wunderground v.1.15,2013-01-28 07:32:00,
2013-01-28 02:33:00,27.8,22.4,30.46,SE,133,1.0,6.0,80,0.00,,,0.00,Wunderground v.1.15,2013-01-28 07:33:00,
2013-01-28 02:37:00,27.8,22.4,30.46,SW,225,0.0,6.0,80,0.00,,,0.00,Wunderground v.1.15,2013-01-28 07:37:00,
2013-01-28 02:38:00,27.8,22.4,30.45,SW,225,0.0,6.0,80,0.00,,,0.00,Wunderground v.1.15,2013-01-28 07:38:00,
2013-01-28 02:39:00,27.8,22.4,30.45,SW,225,0.0,6.0,80,0.00,,,0.00,Wunderground v.1.15,2013-01-28 07:39:00,
2013-01-28 02:42:00,27.7,22.3,30.46,SE,132,0.0,0.0,80,0.00,,,0.00,Wunderground v.1.15,2013-01-28 07:42:00,
2013-01-28 02:44:00,27.7,22.3,30.46,SW,233,0.0,1.0,80,0.00,,,0.00,Wunderground v.1.15,2013-01-28 07:44:00,
2013-01-28 02:47:00,27.7,22.3,30.45,SSE,157,0.0,1.0,80,0.00,,,0.00,Wunderground v.1.15,2013-01-28 07:47:00,
2013-01-28 02:48:00,27.6,22.2,30.45,South,182,0.0,1.0,80,0.00,,,0.00,Wunderground v.1.15,2013-01-28 07:48:00,
2013-01-28 02:51:00,27.6,22.5,30.45,SSW,204,0.0,0.0,81,0.00,,,0.00,Wunderground v.1.15,2013-01-28 07:51:00,
2013-01-28 02:52:00,27.6,22.5,30.45,South,169,0.0,0.0,81,0.00,,,0.00,Wunderground v.1.15,2013-01-28 07:52:00,
2013-01-28 02:54:00,27.6,22.5,30.45,South,178,0.0,0.0,81,0.00,,,0.00,Wunderground v.1.15,2013-01-28 07:54:00,
2013-01-28 02:56:00,27.5,22.4,30.45,SW,236,0.0,2.0,81,0.00,,,0.00,Wunderground v.1.15,2013-01-28 07:56:00,
2013-01-28 03:01:00,27.3,21.9,30.45,SW,232,1.0,4.0,80,0.00,,,0.00,Wunderground v.1.15,2013-01-28 08:01:00,
2013-01-28 03:02:00,27.3,22.2,30.45,SW,227,1.0,12.0,81,0.00,,,0.00,Wunderground v.1.15,2013-01-28 08:02:00,
2013-01-28 03:03:00,27.2,22.1,30.45,SW,233,1.0,12.0,81,0.00,,,0.00,Wunderground v.1.15,2013-01-28 08:03:00,
2013-01-28 03:06:00,27.1,22.0,30.45,SW,234,1.0,12.0,81,0.00,,,0.00,Wunderground v.1.15,2013-01-28 08:06:00,
2013-01-28 03:08:00,27.0,21.9,30.45,SSE,150,1.0,12.0,81,0.00,,,0.00,Wunderground v.1.15,2013-01-28 08:08:00,
2013-01-28 03:09:00,27.0,21.9,30.45,West,274,1.0,12.0,81,0.00,,,0.00,Wunderground v.1.15,2013-01-28 08:09:00,
2013-01-28 03:10:00,26.9,21.8,30.44,SW,236,1.0,1.0,81,0.00,,,0.00,Wunderground v.1.15,2013-01-28 08:10:00,
2013-01-28 03:11:00,26.9,21.8,30.44,WSW,247,1.0,3.0,81,0.00,,,0.00,Wunderground v.1.15,2013-01-28 08:11:00,
2013-01-28 03:16:00,26.8,22.0,30.44,SSW,210,1.0,3.0,82,0.00,,,0.00,Wunderground v.1.15,2013-01-28 08:16:00,
2013-01-28 03:17:00,26.7,21.9,30.44,SW,234,1.0,3.0,82,0.00,,,0.00,Wunderground v.1.15,2013-01-28 08:17:00,
2013-01-28 03:19:00,26.7,21.7,30.44,SSW,197,1.0,3.0,81,0.00,,,0.00,Wunderground v.1.15,2013-01-28 08:19:00,
2013-01-28 03:21:00,26.7,21.9,30.44,SSW,194,1.0,2.0,82,0.00,,,0.00,Wunderground v.1.15,2013-01-28 08:21:00,
2013-01-28 03:23:00,26.6,21.8,30.44,WNW,282,1.0,2.0,82,0.00,,,0.00,Wunderground v.1.15,2013-01-28 08:23:00,
2013-01-28 03:24:00,26.6,21.8,30.44,SSW,209,1.0,2.0,82,0.00,,,0.00,Wunderground v.1.15,2013-01-28 08:24:00,
2013-01-28 03:25:00,26.6,21.8,30.44,SSW,205,1.0,2.0,82,0.00,,,0.00,Wunderground v.1.15,2013-01-28 08:25:00,
2013-01-28 03:27:00,26.5,21.7,30.43,SW,229,0.0,2.0,82,0.00,,,0.00,Wunderground v.1.15,2013-01-28 08:27:00,
2013-01-28 03:31:00,26.5,21.7,30.44,SSE,162,1.0,6.0,82,0.00,,,0.00,Wunderground v.1.15,2013-01-28 08:31:00,
2013-01-28 03:32:00,26.5,21.7,30.43,SSE,162,1.0,6.0,82,0.00,,,0.00,Wunderground v.1.15,2013-01-28 08:32:00,
2013-01-28 03:33:00,26.5,21.7,30.43,SW,223,0.0,6.0,82,0.00,,,0.00,Wunderground v.1.15,2013-01-28 08:33:00,
2013-01-28 03:34:00,26.5,21.7,30.43,SE,138,0.0,6.0,82,0.00,,,0.00,Wunderground v.1.15,2013-01-28 08:34:00,
2013-01-28 03:38:00,26.5,21.7,30.43,SSW,194,0.0,6.0,82,0.00,,,0.00,Wunderground v.1.15,2013-01-28 08:38:00,
2013-01-28 03:39:00,26.5,21.7,30.43,SSW,196,1.0,6.0,82,0.00,,,0.00,Wunderground v.1.15,2013-01-28 08:39:00,
2013-01-28 03:40:00,26.5,21.7,30.43,SW,234,0.0,0.0,82,0.00,,,0.00,Wunderground v.1.15,2013-01-28 08:40:00,
2013-01-28 03:44:00,26.5,21.7,30.43,SSE,163,1.0,2.0,82,0.00,,,0.00,Wunderground v.1.15,2013-01-28 08:44:00,
2013-01-28 03:45:00,26.5,21.7,30.43,SSW,207,1.0,2.0,82,0.00,,,0.00,Wunderground v.1.15,2013-01-28 08:45:00,
2013-01-28 03:48:00,26.4,21.9,30.42,SW,229,1.0,2.0,83,0.00,,,0.00,Wunderground v.1.15,2013-01-28 08:48:00,
2013-01-28 03:51:00,26.4,21.9,30.43,SW,223,1.0,1.0,83,0.00,,,0.00,Wunderground v.1.15,2013-01-28 08:51:00,
2013-01-28 03:52:00,26.5,22.0,30.42,WSW,248,1.0,1.0,83,0.00,,,0.00,Wunderground v.1.15,2013-01-28 08:52:00,
2013-01-28 03:54:00,26.4,21.9,30.42,SE,142,1.0,3.0,83,0.00,,,0.00,Wunderground v.1.15,2013-01-28 08:54:00,
2013-01-28 03:58:00,26.4,21.9,30.42,WSW,253,1.0,3.0,83,0.00,,,0.00,Wunderground v.1.15,2013-01-28 08:58:00,
2013-01-28 03:59:00,26.4,21.9,30.42,SW,223,1.0,3.0,83,0.00,,,0.00,Wunderground v.1.15,2013-01-28 08:59:00,
2013-01-28 04:00:00,26.4,21.9,30.42,SSW,199,1.0,1.0,83,0.00,,,0.00,Wunderground v.1.15,2013-01-28 09:00:00,
2013-01-28 04:04:00,26.3,21.8,30.42,SW,234,1.0,8.0,83,0.00,,,0.00,Wunderground v.1.15,2013-01-28 09:04:00,
2013-01-28 04:07:00,26.3,21.8,30.42,West,275,1.0,8.0,83,0.00,,,0.00,Wunderground v.1.15,2013-01-28 09:07:00,
2013-01-28 04:10:00,26.2,22.0,30.42,WSW,241,1.0,1.0,84,0.00,,,0.00,Wunderground v.1.15,2013-01-28 09:10:00,
2013-01-28 04:11:00,26.2,22.0,30.42,SW,215,1.0,3.0,84,0.00,,,0.00,Wunderground v.1.15,2013-01-28 09:11:00,
2013-01-28 04:13:00,26.1,21.9,30.42,West,269,1.0,4.0,84,0.00,,,0.00,Wunderground v.1.15,2013-01-28 09:13:00,
2013-01-28 04:15:00,26.0,21.8,30.42,West,267,1.0,4.0,84,0.00,,,0.00,Wunderground v.1.15,2013-01-28 09:15:00,
2013-01-28 04:18:00,25.8,21.9,30.42,South,189,1.0,4.0,85,0.00,,,0.00,Wunderground v.1.15,2013-01-28 09:18:00,
2013-01-28 04:19:00,25.8,21.9,30.42,SSW,192,1.0,4.0,85,0.00,,,0.00,Wunderground v.1.15,2013-01-28 09:19:00,
2013-01-28 04:21:00,25.7,22.1,30.42,SW,221,1.0,1.0,86,0.00,,,0.00,Wunderground v.1.15,2013-01-28 09:21:00,
2013-01-28 04:24:00,25.5,22.2,30.42,SW,217,1.0,1.0,87,0.00,,,0.00,Wunderground v.1.15,2013-01-28 09:24:00,
2013-01-28 04:26:00,25.4,22.1,30.42,West,269,1.0,1.0,87,0.00,,,0.00,Wunderground v.1.15,2013-01-28 09:26:00,
2013-01-28 04:31:00,25.3,22.2,30.41,NW,306,1.0,7.0,88,0.00,,,0.00,Wunderground v.1.15,2013-01-28 09:31:00,
2013-01-28 04:33:00,25.2,22.1,30.41,WNW,287,1.0,7.0,88,0.00,,,0.00,Wunderground v.1.15,2013-01-28 09:33:00,
2013-01-28 04:34:00,25.2,22.1,30.41,WNW,288,1.0,7.0,88,0.00,,,0.00,Wunderground v.1.15,2013-01-28 09:34:00,
2013-01-28 04:38:00,25.1,22.0,30.41,SW,232,1.0,7.0,88,0.00,,,0.00,Wunderground v.1.15,2013-01-28 09:38:00,
2013-01-28 04:40:00,25.1,22.0,30.41,WSW,242,0.0,0.0,88,0.00,,,0.00,Wunderground v.1.15,2013-01-28 09:40:00,
2013-01-28 04:42:00,25.1,22.3,30.40,WNW,291,0.0,0.0,89,0.00,,,0.00,Wunderground v.1.15,2013-01-28 09:42:00,
2013-01-28 04:45:00,25.0,22.2,30.40,South,172,1.0,5.0,89,0.00,,,0.00,Wunderground v.1.15,2013-01-28 09:45:00,
2013-01-28 04:47:00,25.0,22.2,30.40,SE,138,0.0,5.0,89,0.00,,,0.00,Wunderground v.1.15,2013-01-28 09:47:00,
2013-01-28 04:49:00,25.0,22.2,30.40,NE,47,0.0,5.0,89,0.00,,,0.00,Wunderground v.1.15,2013-01-28 09:49:00,
2013-01-28 04:52:00,25.1,22.6,30.40,SW,225,1.0,2.0,90,0.00,,,0.00,Wunderground v.1.15,2013-01-28 09:52:00,
2013-01-28 04:55:00,25.1,22.6,30.40,SW,233,1.0,2.0,90,0.00,,,0.00,Wunderground v.1.15,2013-01-28 09:55:00,
2013-01-28 04:57:00,25.2,22.7,30.40,West,265,1.0,2.0,90,0.00,,,0.00,Wunderground v.1.15,2013-01-28 09:57:00,
2013-01-28 04:58:00,25.2,22.7,30.40,SSE,165,1.0,2.0,90,0.00,,,0.00,Wunderground v.1.15,2013-01-28 09:58:00,
2013-01-28 05:03:00,25.5,23.0,30.40,West,260,1.0,6.0,90,0.00,,,0.00,Wunderground v.1.15,2013-01-28 10:03:00,
2013-01-28 05:06:00,25.6,23.1,30.40,WSW,250,0.0,6.0,90,0.00,,,0.00,Wunderground v.1.15,2013-01-28 10:06:00,
2013-01-28 05:07:00,25.6,23.1,30.40,WSW,252,0.0,6.0,90,0.00,,,0.00,Wunderground v.1.15,2013-01-28 10:07:00,
2013-01-28 05:08:00,25.6,23.3,30.39,South,179,0.0,6.0,91,0.00,,,0.00,Wunderground v.1.15,2013-01-28 10:08:00,
2013-01-28 05:12:00,25.6,23.3,30.39,WNW,288,0.0,0.0,91,0.00,,,0.00,Wunderground v.1.15,2013-01-28 10:12:00,
2013-01-28 05:14:00,25.6,23.3,30.39,West,264,0.0,2.0,91,0.00,,,0.00,Wunderground v.1.15,2013-01-28 10:14:00,
2013-01-28 05:15:00,25.6,23.3,30.39,WSW,249,1.0,2.0,91,0.00,,,0.00,Wunderground v.1.15,2013-01-28 10:15:00,
2013-01-28 05:17:00,25.6,23.3,30.39,WSW,250,1.0,2.0,91,0.00,,,0.00,Wunderground v.1.15,2013-01-28 10:17:00,
2013-01-28 05:18:00,25.6,23.3,30.39,SSW,213,1.0,2.0,91,0.00,,,0.00,Wunderground v.1.15,2013-01-28 10:18:00,
2013-01-28 05:20:00,25.5,23.2,30.39,WSW,246,1.0,1.0,91,0.00,,,0.00,Wunderground v.1.15,2013-01-28 10:20:00,
2013-01-28 05:24:00,25.6,23.3,30.39,West,269,1.0,4.0,91,0.00,,,0.00,Wunderground v.1.15,2013-01-28 10:24:00,
2013-01-28 05:26:00,25.6,23.3,30.40,South,183,1.0,4.0,91,0.00,,,0.00,Wunderground v.1.15,2013-01-28 10:26:00,
2013-01-28 05:28:00,25.6,23.3,30.40,West,261,1.0,4.0,91,0.00,,,0.00,Wunderground v.1.15,2013-01-28 10:28:00,
2013-01-28 05:29:00,25.6,23.3,30.40,West,265,1.0,4.0,91,0.00,,,0.00,Wunderground v.1.15,2013-01-28 10:29:00,
2013-01-28 05:30:00,25.6,23.3,30.39,South,169,1.0,1.0,91,0.00,,,0.00,Wunderground v.1.15,2013-01-28 10:30:00,
2013-01-28 05:36:00,25.5,23.5,30.38,WNW,292,2.0,6.0,92,0.00,,,0.00,Wunderground v.1.15,2013-01-28 10:36:00,
2013-01-28 05:37:00,25.6,23.6,30.38,West,267,2.0,6.0,92,0.00,,,0.00,Wunderground v.1.15,2013-01-28 10:37:00,
2013-01-28 05:38:00,25.6,23.6,30.38,SW,220,1.0,6.0,92,0.00,,,0.00,Wunderground v.1.15,2013-01-28 10:38:00,
2013-01-28 05:43:00,25.7,23.7,30.39,South,173,1.0,2.0,92,0.00,,,0.00,Wunderground v.1.15,2013-01-28 10:43:00,
2013-01-28 05:46:00,25.7,23.7,30.39,SSW,211,1.0,2.0,92,0.00,,,0.00,Wunderground v.1.15,2013-01-28 10:46:00,
2013-01-28 05:49:00,25.7,23.7,30.39,SSE,163,0.0,2.0,92,0.00,,,0.00,Wunderground v.1.15,2013-01-28 10:49:00,
2013-01-28 05:52:00,25.7,23.7,30.38,SW,229,1.0,2.0,92,0.00,,,0.00,Wunderground v.1.15,2013-01-28 10:52:00,
2013-01-28 05:53:00,25.6,23.6,30.39,West,271,1.0,2.0,92,0.00,,,0.00,Wunderground v.1.15,2013-01-28 10:53:00,
2013-01-28 05:55:00,25.5,23.5,30.39,West,271,1.0,2.0,92,0.00,,,0.00,Wunderground v.1.15,2013-01-28 10:55:00,
2013-01-28 05:58:00,25.5,23.5,30.40,WSW,246,1.0,4.0,92,0.00,,,0.00,Wunderground v.1.15,2013-01-28 10:58:00,
2013-01-28 06:00:00,25.5,23.5,30.40,West,268,1.0,1.0,92,0.00,,,0.00,Wunderground v.1.15,2013-01-28 11:00:00,
2013-01-28 06:04:00,25.5,23.8,30.39,NW,309,1.0,6.0,93,0.00,,,0.00,Wunderground v.1.15,2013-01-28 11:04:00,
2013-01-28 06:06:00,25.6,23.9,30.39,West,263,1.0,6.0,93,0.00,,,0.00,Wunderground v.1.15,2013-01-28 11:06:00,
2013-01-28 06:08:00,25.4,23.7,30.39,SW,215,1.0,6.0,93,0.00,,,0.00,Wunderground v.1.15,2013-01-28 11:08:00,
2013-01-28 06:12:00,25.5,23.8,30.39,West,277,1.0,3.0,93,0.00,,,0.00,Wunderground v.1.15,2013-01-28 11:12:00,
2013-01-28 06:13:00,25.6,23.9,30.39,SW,233,1.0,3.0,93,0.00,,,0.00,Wunderground v.1.15,2013-01-28 11:13:00,
2013-01-28 06:15:00,25.6,23.9,30.39,West,259,1.0,3.0,93,0.00,,,0.00,Wunderground v.1.15,2013-01-28 11:15:00,
2013-01-28 06:18:00,25.6,23.9,30.39,SSW,205,1.0,3.0,93,0.00,,,0.00,Wunderground v.1.15,2013-01-28 11:18:00,
2013-01-28 06:21:00,25.6,23.9,30.39,SSW,203,0.0,0.0,93,0.00,,,0.00,Wunderground v.1.15,2013-01-28 11:21:00,
2013-01-28 06:22:00,25.6,23.9,30.38,SW,220,0.0,0.0,93,0.00,,,0.00,Wunderground v.1.15,2013-01-28 11:22:00,
2013-01-28 06:25:00,25.7,24.0,30.39,SW,221,0.0,2.0,93,0.00,,,0.00,Wunderground v.1.15,2013-01-28 11:25:00,
2013-01-28 06:27:00,25.6,23.9,30.39,West,263,0.0,2.0,93,0.00,,,0.00,Wunderground v.1.15,2013-01-28 11:27:00,
2013-01-28 06:28:00,25.7,24.0,30.40,NW,305,1.0,3.0,93,0.00,,,0.00,Wunderground v.1.15,2013-01-28 11:28:00,
2013-01-28 06:32:00,25.7,24.0,30.41,West,264,1.0,7.0,93,0.00,,,0.00,Wunderground v.1.15,2013-01-28 11:32:00,
2013-01-28 06:33:00,25.7,24.0,30.40,West,264,1.0,7.0,93,0.00,,,0.00,Wunderground v.1.15,2013-01-28 11:33:00,
2013-01-28 06:34:00,25.7,24.0,30.40,West,261,1.0,7.0,93,0.00,,,0.00,Wunderground v.1.15,2013-01-28 11:34:00,
2013-01-28 06:38:00,25.8,24.1,30.40,WNW,290,1.0,7.0,93,0.00,,,0.00,Wunderground v.1.15,2013-01-28 11:38:00,
2013-01-28 06:40:00,25.7,24.2,30.40,SW,231,1.0,1.0,94,0.00,,,0.00,Wunderground v.1.15,2013-01-28 11:40:00,
2013-01-28 06:42:00,25.7,24.2,30.40,SW,226,1.0,1.0,94,0.00,,,0.00,Wunderground v.1.15,2013-01-28 11:42:00,
2013-01-28 06:44:00,25.7,24.2,30.40,SW,234,1.0,1.0,94,0.00,,,0.00,Wunderground v.1.15,2013-01-28 11:44:00,
2013-01-28 06:45:00,25.7,24.2,30.40,West,277,1.0,1.0,94,0.00,,,0.00,Wunderground v.1.15,2013-01-28 11:45:00,
2013-01-28 06:48:00,25.8,24.3,30.39,SSE,150,1.0,1.0,94,0.00,,,0.00,Wunderground v.1.15,2013-01-28 11:48:00,
2013-01-28 06:50:00,25.7,24.2,30.38,SSE,155,1.0,1.0,94,0.00,,,0.00,Wunderground v.1.15,2013-01-28 11:50:00,
2013-01-28 06:51:00,25.7,24.2,30.38,West,266,1.0,1.0,94,0.00,,,0.00,Wunderground v.1.15,2013-01-28 11:51:00,
2013-01-28 06:52:00,25.6,24.1,30.39,WNW,295,1.0,1.0,94,0.00,,,0.00,Wunderground v.1.15,2013-01-28 11:52:00,
2013-01-28 06:54:00,25.6,24.1,30.40,WNW,286,1.0,3.0,94,0.00,,,0.00,Wunderground v.1.15,2013-01-28 11:54:00,
2013-01-28 06:57:00,25.7,24.2,30.39,SSE,157,2.0,3.0,94,0.00,,,0.00,Wunderground v.1.15,2013-01-28 11:57:00,
2013-01-28 06:58:00,25.7,24.2,30.38,WSW,250,2.0,3.0,94,0.00,,,0.00,Wunderground v.1.15,2013-01-28 11:58:00,
2013-01-28 06:59:00,25.7,24.2,30.38,WSW,254,2.0,3.0,94,0.00,,,0.00,Wunderground v.1.15,2013-01-28 11:59:00,
2013-01-28 07:02:00,25.6,24.1,30.39,West,260,1.0,6.0,94,0.00,,,0.00,Wunderground v.1.15,2013-01-28 12:02:00,
2013-01-28 07:03:00,25.7,24.2,30.39,West,268,1.0,6.0,94,0.00,,,0.00,Wunderground v.1.15,2013-01-28 12:03:00,
2013-01-28 07:04:00,25.7,24.2,30.39,WNW,284,1.0,6.0,94,0.00,,,0.00,Wunderground v.1.15,2013-01-28 12:04:00,
2013-01-28 07:07:00,25.7,24.2,30.40,West,267,1.0,6.0,94,0.00,,,0.00,Wunderground v.1.15,2013-01-28 12:07:00,
2013-01-28 07:08:00,25.7,24.2,30.40,WNW,299,1.0,6.0,94,0.00,,,0.00,Wunderground v.1.15,2013-01-28 12:08:00,
2013-01-28 07:10:00,25.6,24.1,30.40,WNW,291,2.0,2.0,94,0.00,,,0.00,Wunderground v.1.15,2013-01-28 12:10:00,
2013-01-28 07:12:00,25.6,24.1,30.40,SSE,167,1.0,2.0,94,0.00,,,0.00,Wunderground v.1.15,2013-01-28 12:12:00,
2013-01-28 07:14:00,25.6,24.1,30.39,SSE,158,1.0,2.0,94,0.00,,,0.00,Wunderground v.1.15,2013-01-28 12:14:00,
2013-01-28 07:17:00,25.6,24.1,30.38,WSW,243,1.0,3.0,94,0.00,,,0.00,Wunderground v.1.15,2013-01-28 12:17:00,
2013-01-28 07:19:00,25.6,24.1,30.37,WSW,243,1.0,3.0,94,0.00,,,0.00,Wunderground v.1.15,2013-01-28 12:19:00,
2013-01-28 07:20:00,25.6,24.1,30.37,West,267,0.0,0.0,94,0.00,,,0.00,Wunderground v.1.15,2013-01-28 12:20:00,
2013-01-28 07:22:00,25.6,24.1,30.37,SW,230,0.0,0.0,94,0.00,,,0.00,Wunderground v.1.15,2013-01-28 12:22:00,
2013-01-28 07:23:00,25.6,24.1,30.37,SW,226,0.0,3.0,94,0.00,,,0.00,Wunderground v.1.15,2013-01-28 12:23:00,
2013-01-28 07:27:00,25.6,24.1,30.38,WSW,257,1.0,3.0,94,0.00,,,0.00,Wunderground v.1.15,2013-01-28 12:27:00,
2013-01-28 07:28:00,25.7,24.2,30.38,WNW,298,1.0,3.0,94,0.00,,,0.00,Wunderground v.1.15,2013-01-28 12:28:00,
2013-01-28 07:33:00,25.8,24.3,30.38,WSW,255,1.0,5.0,94,0.00,,,0.00,Wunderground v.1.15,2013-01-28 12:33:00,
2013-01-28 07:34:00,25.8,24.3,30.38,SE,146,1.0,5.0,94,0.00,,,0.00,Wunderground v.1.15,2013-01-28 12:34:00,
2013-01-28 07:37:00,25.8,24.3,30.38,West,279,1.0,5.0,94,0.00,,,0.00,Wunderground v.1.15,2013-01-28 12:37:00,
2013-01-28 07:39:00,25.8,24.3,30.38,SE,143,1.0,5.0,94,0.00,,,0.00,Wunderground v.1.15,2013-01-28 12:39:00,
2013-01-28 07:41:00,25.8,24.3,30.37,WSW,240,1.0,1.0,94,0.00,,,0.00,Wunderground v.1.15,2013-01-28 12:41:00,
2013-01-28 07:44:00,25.9,24.4,30.37,WSW,243,0.0,2.0,94,0.00,,,0.00,Wunderground v.1.15,2013-01-28 12:44:00,
2013-01-28 07:45:00,25.9,24.4,30.37,SSW,213,0.0,2.0,94,0.00,,,0.00,Wunderground v.1.15,2013-01-28 12:45:00,
2013-01-28 07:47:00,25.9,24.4,30.37,WSW,254,0.0,4.0,94,0.00,,,0.00,Wunderground v.1.15,2013-01-28 12:47:00,
2013-01-28 07:50:00,25.9,24.4,30.36,WNW,294,1.0,1.0,94,0.00,,,0.00,Wunderground v.1.15,2013-01-28 12:50:00,
2013-01-28 07:52:00,25.9,24.4,30.36,West,273,1.0,1.0,94,0.00,,,0.00,Wunderground v.1.15,2013-01-28 12:52:00,
2013-01-28 07:55:00,26.0,24.5,30.37,WNW,294,1.0,1.0,94,0.00,,,0.00,Wunderground v.1.15,2013-01-28 12:55:00,
2013-01-28 07:57:00,26.1,24.6,30.37,WNW,292,1.0,1.0,94,0.00,,,0.00,Wunderground v.1.15,2013-01-28 12:57:00,
2013-01-28 08:01:00,26.2,25.0,30.37,SE,138,0.0,6.0,95,0.00,,,0.00,Wunderground v.1.15,2013-01-28 13:01:00,
2013-01-28 08:02:00,26.2,25.0,30.37,NW,309,0.0,6.0,95,0.00,,,0.00,Wunderground v.1.15,2013-01-28 13:02:00,
2013-01-28 08:03:00,26.2,25.0,30.37,NW,310,0.0,6.0,95,0.00,,,0.00,Wunderground v.1.15,2013-01-28 13:03:00,
2013-01-28 08:07:00,26.2,25.0,30.37,WSW,248,0.0,6.0,95,0.00,,,0.00,Wunderground v.1.15,2013-01-28 13:07:00,
2013-01-28 08:08:00,26.2,25.0,30.37,West,268,1.0,6.0,95,0.00,,,0.00,Wunderground v.1.15,2013-01-28 13:08:00,
2013-01-28 08:10:00,26.2,25.0,30.37,West,268,1.0,1.0,95,0.00,,,0.00,Wunderground v.1.15,2013-01-28 13:10:00,
2013-01-28 08:13:00,26.3,25.1,30.37,WSW,242,1.0,4.0,95,0.00,,,0.00,Wunderground v.1.15,2013-01-28 13:13:00,
2013-01-28 08:14:00,26.3,25.1,30.37,WSW,243,1.0,4.0,95,0.00,,,0.00,Wunderground v.1.15,2013-01-28 13:14:00,
2013-01-28 08:18:00,26.3,24.8,30.38,WSW,244,2.0,4.0,94,0.00,,,0.00,Wunderground v.1.15,2013-01-28 13:18:00,
2013-01-28 08:19:00,26.3,24.8,30.38,West,271,2.0,4.0,94,0.00,,,0.00,Wunderground v.1.15,2013-01-28 13:19:00,
2013-01-28 08:20:00,26.3,25.1,30.38,WNW,295,2.0,2.0,95,0.00,,,0.00,Wunderground v.1.15,2013-01-28 13:20:00,
2013-01-28 08:24:00,26.4,25.2,30.37,West,270,2.0,2.0,95,0.00,,,0.00,Wunderground v.1.15,2013-01-28 13:24:00,
2013-01-28 08:25:00,26.4,25.2,30.37,West,271,1.0,2.0,95,0.00,,,0.00,Wunderground v.1.15,2013-01-28 13:25:00,
2013-01-28 08:26:00,26.4,25.2,30.37,West,274,1.0,2.0,95,0.00,,,0.00,Wunderground v.1.15,2013-01-28 13:26:00,
2013-01-28 08:28:00,26.5,25.3,30.37,WNW,292,1.0,4.0,95,0.00,,,0.00,Wunderground v.1.15,2013-01-28 13:28:00,
2013-01-28 08:30:00,26.5,25.3,30.37,West,269,1.0,3.0,95,0.00,,,0.00,Wunderground v.1.15,2013-01-28 13:30:00,
2013-01-28 08:31:00,26.5,25.3,30.37,West,267,1.0,5.0,95,0.00,,,0.00,Wunderground v.1.15,2013-01-28 13:31:00,
2013-01-28 08:32:00,26.5,25.3,30.37,West,267,1.0,5.0,95,0.00,,,0.00,Wunderground v.1.15,2013-01-28 13:32:00,
2013-01-28 08:36:00,26.5,25.3,30.35,WSW,257,1.0,5.0,95,0.00,,,0.00,Wunderground v.1.15,2013-01-28 13:36:00,
2013-01-28 08:40:00,26.6,25.4,30.36,SW,230,1.0,1.0,95,0.00,,,0.00,Wunderground v.1.15,2013-01-28 13:40:00,
2013-01-28 08:41:00,26.7,25.5,30.35,West,269,1.0,4.0,95,0.00,,,0.00,Wunderground v.1.15,2013-01-28 13:41:00,
2013-01-28 08:43:00,26.7,25.5,30.35,West,265,1.0,4.0,95,0.00,,,0.00,Wunderground v.1.15,2013-01-28 13:43:00,
2013-01-28 08:45:00,26.7,25.5,30.36,WSW,252,1.0,4.0,95,0.00,,,0.00,Wunderground v.1.15,2013-01-28 13:45:00,
2013-01-28 08:47:00,26.7,25.5,30.36,South,173,1.0,4.0,95,0.00,,,0.00,Wunderground v.1.15,2013-01-28 13:47:00,
2013-01-28 08:48:00,26.7,25.5,30.36,WNW,289,1.0,4.0,95,0.00,,,0.00,Wunderground v.1.15,2013-01-28 13:48:00,
2013-01-28 08:49:00,26.7,25.5,30.36,WSW,244,1.0,4.0,95,0.00,,,0.00,Wunderground v.1.15,2013-01-28 13:49:00,
2013-01-28 08:52:00,26.7,25.5,30.35,WSW,246,1.0,1.0,95,0.00,,,0.00,Wunderground v.1.15,2013-01-28 13:52:00,
2013-01-28 08:54:00,26.8,25.6,30.35,WSW,244,0.0,1.0,95,0.00,,,0.00,Wunderground v.1.15,2013-01-28 13:54:00,
2013-01-28 08:57:00,26.8,25.6,30.35,West,263,0.0,1.0,95,0.00,,,0.00,Wunderground v.1.15,2013-01-28 13:57:00,
2013-01-28 09:00:00,26.9,25.7,30.35,West,264,0.0,0.0,95,0.00,,,0.00,Wunderground v.1.15,2013-01-28 14:00:00,
2013-01-28 09:01:00,27.0,25.8,30.35,WNW,302,0.0,9.0,95,0.00,,,0.00,Wunderground v.1.15,2013-01-28 14:01:00,
2013-01-28 09:02:00,27.0,25.8,30.35,WNW,283,0.0,9.0,95,0.00,,,0.00,Wunderground v.1.15,2013-01-28 14:02:00,
2013-01-28 09:04:00,27.0,25.8,30.35,WNW,285,1.0,9.0,95,0.00,,,0.00,Wunderground v.1.15,2013-01-28 14:04:00,
2013-01-28 09:06:00,27.0,25.8,30.35,West,277,1.0,9.0,95,0.00,,,0.00,Wunderground v.1.15,2013-01-28 14:06:00,
2013-01-28 09:07:00,27.0,25.8,30.36,West,277,1.0,9.0,95,0.00,,,0.00,Wunderground v.1.15,2013-01-28 14:07:00,
2013-01-28 09:10:00,27.0,25.8,30.35,West,277,1.0,1.0,95,0.00,,,0.00,Wunderground v.1.15,2013-01-28 14:10:00,
2013-01-28 09:12:00,27.0,25.8,30.35,NW,308,1.0,1.0,95,0.00,,,0.00,Wunderground v.1.15,2013-01-28 14:12:00,
2013-01-28 09:13:00,27.0,25.8,30.35,NW,307,1.0,1.0,95,0.00,,,0.00,Wunderground v.1.15,2013-01-28 14:13:00,
2013-01-28 09:16:00,27.1,25.9,30.35,NW,315,1.0,3.0,95,0.00,,,0.00,Wunderground v.1.15,2013-01-28 14:16:00,
2013-01-28 09:19:00,27.1,25.9,30.35,West,271,1.0,3.0,95,0.00,,,0.00,Wunderground v.1.15,2013-01-28 14:19:00,
2013-01-28 09:21:00,27.1,25.9,30.34,WSW,244,1.0,1.0,95,0.00,,,0.00,Wunderground v.1.15,2013-01-28 14:21:00,
2013-01-28 09:22:00,27.1,25.9,30.34,West,269,1.0,1.0,95,0.00,,,0.00,Wunderground v.1.15,2013-01-28 14:22:00,
2013-01-28 09:23:00,27.1,25.9,30.34,SW,232,1.0,1.0,95,0.00,,,0.00,Wunderground v.1.15,2013-01-28 14:23:00,
2013-01-28 09:26:00,27.1,25.9,30.34,SW,233,1.0,1.0,95,0.00,,,0.00,Wunderground v.1.15,2013-01-28 14:26:00,
2013-01-28 09:27:00,27.1,25.9,30.34,WSW,238,1.0,1.0,95,0.00,,,0.00,Wunderground v.1.15,2013-01-28 14:27:00,
2013-01-28 09:29:00,27.1,25.9,30.34,South,189,0.0,1.0,95,0.00,,,0.00,Wunderground v.1.15,2013-01-28 14:29:00,
2013-01-28 09:30:00,27.1,25.9,30.34,South,188,0.0,0.0,95,0.00,,,0.00,Wunderground v.1.15,2013-01-28 14:30:00,
2013-01-28 09:31:00,27.1,25.9,30.34,SW,227,0.0,2.0,95,0.00,,,0.00,Wunderground v.1.15,2013-01-28 14:31:00,
2013-01-28 09:34:00,27.2,26.0,30.34,SSW,206,0.0,3.0,95,0.00,,,0.00,Wunderground v.1.15,2013-01-28 14:34:00,
2013-01-28 09:37:00,27.3,26.1,30.34,West,273,0.0,3.0,95,0.00,,,0.00,Wunderground v.1.15,2013-01-28 14:37:00,
2013-01-28 09:39:00,27.3,26.1,30.33,West,271,0.0,3.0,95,0.00,,,0.00,Wunderground v.1.15,2013-01-28 14:39:00,
2013-01-28 09:43:00,27.4,26.2,30.33,NW,309,1.0,1.0,95,0.00,,,0.00,Wunderground v.1.15,2013-01-28 14:43:00,
2013-01-28 09:44:00,27.3,26.1,30.33,NW,309,1.0,1.0,95,0.00,,,0.00,Wunderground v.1.15,2013-01-28 14:44:00,
2013-01-28 09:45:00,27.4,26.2,30.33,West,272,1.0,3.0,95,0.00,,,0.00,Wunderground v.1.15,2013-01-28 14:45:00,
2013-01-28 09:46:00,27.4,26.2,30.33,West,271,1.0,3.0,95,0.00,,,0.00,Wunderground v.1.15,2013-01-28 14:46:00,
2013-01-28 09:50:00,27.3,26.1,30.33,West,275,1.0,1.0,95,0.00,,,0.00,Wunderground v.1.15,2013-01-28 14:50:00,
2013-01-28 09:52:00,27.3,26.1,30.33,West,275,1.0,1.0,95,0.00,,,0.00,Wunderground v.1.15,2013-01-28 14:52:00,
2013-01-28 09:53:00,27.3,26.1,30.33,West,276,0.0,2.0,95,0.00,,,0.00,Wunderground v.1.15,2013-01-28 14:53:00,
2013-01-28 09:56:00,27.4,26.2,30.33,West,278,0.0,3.0,95,0.00,,,0.00,Wunderground v.1.15,2013-01-28 14:56:00,
2013-01-28 09:57:00,27.4,26.2,30.33,West,269,0.0,3.0,95,0.00,,,0.00,Wunderground v.1.15,2013-01-28 14:57:00,
2013-01-28 09:59:00,27.4,26.2,30.33,West,281,1.0,5.0,95,0.00,,,0.00,Wunderground v.1.15,2013-01-28 14:59:00,
2013-01-28 10:01:00,27.4,26.2,30.33,ESE,121,1.0,4.0,95,0.00,,,0.00,Wunderground v.1.15,2013-01-28 15:01:00,
2013-01-28 10:02:00,27.4,26.2,30.33,West,280,1.0,5.0,95,0.00,,,0.00,Wunderground v.1.15,2013-01-28 15:02:00,
2013-01-28 10:04:00,27.4,26.2,30.32,WNW,288,1.0,5.0,95,0.00,,,0.00,Wunderground v.1.15,2013-01-28 15:04:00,
2013-01-28 10:09:00,27.4,26.2,30.32,WNW,299,1.0,5.0,95,0.00,,,0.00,Wunderground v.1.15,2013-01-28 15:09:00,
2013-01-28 10:10:00,27.4,26.2,30.32,NW,304,1.0,1.0,95,0.00,,,0.00,Wunderground v.1.15,2013-01-28 15:10:00,
2013-01-28 10:11:00,27.5,26.3,30.32,WNW,300,1.0,1.0,95,0.00,,,0.00,Wunderground v.1.15,2013-01-28 15:11:00,
2013-01-28 10:15:00,27.5,26.3,30.32,WSW,246,1.0,2.0,95,0.00,,,0.00,Wunderground v.1.15,2013-01-28 15:15:00,
2013-01-28 10:17:00,27.5,26.3,30.32,West,265,1.0,4.0,95,0.00,,,0.00,Wunderground v.1.15,2013-01-28 15:17:00,
2013-01-28 10:20:00,27.6,26.4,30.32,West,273,1.0,1.0,95,0.00,,,0.00,Wunderground v.1.15,2013-01-28 15:20:00,
2013-01-28 10:21:00,27.6,26.4,30.32,West,273,1.0,1.0,95,0.00,,,0.00,Wunderground v.1.15,2013-01-28 15:21:00,
2013-01-28 10:25:00,27.6,26.4,30.32,NNW,338,1.0,3.0,95,0.00,,,0.00,Wunderground v.1.15,2013-01-28 15:25:00,
2013-01-28 10:26:00,27.6,26.4,30.33,SW,235,1.0,3.0,95,0.00,,,0.00,Wunderground v.1.15,2013-01-28 15:26:00,
2013-01-28 10:28:00,27.7,26.5,30.32,West,259,1.0,3.0,95,0.00,,,0.00,Wunderground v.1.15,2013-01-28 15:28:00,
2013-01-28 10:29:00,27.7,26.5,30.32,South,183,1.0,3.0,95,0.00,,,0.00,Wunderground v.1.15,2013-01-28 15:29:00,
2013-01-28 10:31:00,27.7,26.5,30.31,WSW,238,1.0,5.0,95,0.00,,,0.00,Wunderground v.1.15,2013-01-28 15:31:00,
2013-01-28 10:34:00,27.8,26.6,30.32,WNW,286,1.0,5.0,95,0.00,,,0.00,Wunderground v.1.15,2013-01-28 15:34:00,
2013-01-28 10:35:00,27.8,26.6,30.32,West,259,2.0,5.0,95,0.00,,,0.00,Wunderground v.1.15,2013-01-28 15:35:00,
2013-01-28 10:41:00,27.9,26.7,30.32,WSW,252,2.0,2.0,95,0.00,,,0.00,Wunderground v.1.15,2013-01-28 15:41:00,
2013-01-28 10:42:00,27.9,26.7,30.32,WNW,302,2.0,5.0,95,0.00,,,0.00,Wunderground v.1.15,2013-01-28 15:42:00,
2013-01-28 10:43:00,27.9,26.7,30.32,West,272,2.0,5.0,95,0.00,,,0.00,Wunderground v.1.15,2013-01-28 15:43:00,
2013-01-28 10:47:00,27.9,26.7,30.31,WNW,282,1.0,5.0,95,0.00,,,0.00,Wunderground v.1.15,2013-01-28 15:47:00,
2013-01-28 10:48:00,27.9,26.7,30.30,WNW,297,1.0,5.0,95,0.00,,,0.00,Wunderground v.1.15,2013-01-28 15:48:00,
2013-01-28 10:50:00,28.0,26.8,30.30,WSW,237,1.0,3.0,95,0.00,,,0.00,Wunderground v.1.15,2013-01-28 15:50:00,
2013-01-28 10:51:00,27.9,26.7,30.30,SE,139,1.0,3.0,95,0.00,,,0.00,Wunderground v.1.15,2013-01-28 15:51:00,
2013-01-28 10:54:00,28.0,27.0,30.30,NW,313,1.0,3.0,96,0.00,,,0.00,Wunderground v.1.15,2013-01-28 15:54:00,
2013-01-28 10:55:00,28.1,26.9,30.30,WNW,286,1.0,3.0,95,0.00,,,0.00,Wunderground v.1.15,2013-01-28 15:55:00,
2013-01-28 10:58:00,28.1,26.9,30.29,West,281,0.0,4.0,95,0.00,,,0.00,Wunderground v.1.15,2013-01-28 15:58:00,
2013-01-28 11:00:00,28.1,27.1,30.29,WNW,292,1.0,3.0,96,0.00,,,0.00,Wunderground v.1.15,2013-01-28 16:00:00,
2013-01-28 11:01:00,28.1,27.1,30.29,WNW,290,1.0,9.0,96,0.00,,,0.00,Wunderground v.1.15,2013-01-28 16:01:00,
2013-01-28 11:03:00,28.1,27.1,30.29,WNW,299,1.0,9.0,96,0.00,,,0.00,Wunderground v.1.15,2013-01-28 16:03:00,
2013-01-28 11:04:00,28.1,27.1,30.29,WNW,296,1.0,9.0,96,0.00,,,0.00,Wunderground v.1.15,2013-01-28 16:04:00,
2013-01-28 11:06:00,28.2,27.2,30.29,WNW,294,1.0,9.0,96,0.00,,,0.00,Wunderground v.1.15,2013-01-28 16:06:00,
2013-01-28 11:09:00,28.3,27.1,30.30,WNW,290,1.0,9.0,95,0.00,,,0.00,Wunderground v.1.15,2013-01-28 16:09:00,
2013-01-28 11:11:00,28.3,27.1,30.30,WNW,289,1.0,1.0,95,0.00,,,0.00,Wunderground v.1.15,2013-01-28 16:11:00,
2013-01-28 11:12:00,28.3,27.1,30.29,WNW,288,1.0,1.0,95,0.00,,,0.00,Wunderground v.1.15,2013-01-28 16:12:00,
2013-01-28 11:15:00,28.3,27.1,30.30,NW,313,1.0,4.0,95,0.00,,,0.00,Wunderground v.1.15,2013-01-28 16:15:00,
2013-01-28 11:16:00,28.3,27.1,30.29,WNW,300,1.0,4.0,95,0.00,,,0.00,Wunderground v.1.15,2013-01-28 16:16:00,
2013-01-28 11:18:00,28.4,27.2,30.30,WNW,288,1.0,4.0,95,0.00,,,0.00,Wunderground v.1.15,2013-01-28 16:18:00,
2013-01-28 11:19:00,28.4,27.2,30.30,WSW,240,1.0,4.0,95,0.00,,,0.00,Wunderground v.1.15,2013-01-28 16:19:00,
2013-01-28 11:20:00,28.4,27.2,30.30,West,269,1.0,1.0,95,0.00,,,0.00,Wunderground v.1.15,2013-01-28 16:20:00,
2013-01-28 11:21:00,28.4,27.2,30.30,West,265,1.0,1.0,95,0.00,,,0.00,Wunderground v.1.15,2013-01-28 16:21:00,
2013-01-28 11:24:00,28.4,27.2,30.29,West,268,1.0,2.0,95,0.00,,,0.00,Wunderground v.1.15,2013-01-28 16:24:00,
2013-01-28 11:26:00,28.4,27.2,30.29,WSW,250,2.0,2.0,95,0.00,,,0.00,Wunderground v.1.15,2013-01-28 16:26:00,
2013-01-28 11:27:00,28.4,27.2,30.29,WNW,287,2.0,3.0,95,0.00,,,0.00,Wunderground v.1.15,2013-01-28 16:27:00,
2013-01-28 11:30:00,28.5,27.3,30.28,WSW,252,2.0,2.0,95,0.00,,,0.00,Wunderground v.1.15,2013-01-28 16:30:00,
2013-01-28 11:32:00,28.6,27.6,30.28,NNW,342,2.0,6.0,96,0.00,,,0.00,Wunderground v.1.15,2013-01-28 16:32:00,
2013-01-28 11:35:00,28.7,27.7,30.28,NW,325,1.0,6.0,96,0.00,,,0.00,Wunderground v.1.15,2013-01-28 16:35:00,
2013-01-28 11:37:00,28.7,27.7,30.28,WNW,288,1.0,6.0,96,0.00,,,0.00,Wunderground v.1.15,2013-01-28 16:37:00,
2013-01-28 11:39:00,28.7,27.7,30.27,SW,230,1.0,6.0,96,0.00,,,0.00,Wunderground v.1.15,2013-01-28 16:39:00,
2013-01-28 11:41:00,28.7,27.7,30.28,WSW,257,1.0,3.0,96,0.00,,,0.00,Wunderground v.1.15,2013-01-28 16:41:00,
2013-01-28 11:44:00,28.7,27.7,30.27,West,267,2.0,3.0,96,0.00,,,0.00,Wunderground v.1.15,2013-01-28 16:44:00,
2013-01-28 11:47:00,28.7,27.7,30.27,West,280,2.0,3.0,96,0.00,,,0.00,Wunderground v.1.15,2013-01-28 16:47:00,
2013-01-28 11:49:00,28.7,27.7,30.27,West,276,2.0,3.0,96,0.00,,,0.00,Wunderground v.1.15,2013-01-28 16:49:00,
2013-01-28 11:51:00,28.7,27.7,30.26,SSW,213,2.0,5.0,96,0.00,,,0.00,Wunderground v.1.15,2013-01-28 16:51:00,
2013-01-28 11:52:00,28.8,27.8,30.26,West,266,1.0,5.0,96,0.00,,,0.00,Wunderground v.1.15,2013-01-28 16:52:00,
2013-01-28 11:55:00,28.8,27.8,30.26,ESE,105,1.0,5.0,96,0.00,,,0.00,Wunderground v.1.15,2013-01-28 16:55:00,
2013-01-28 11:56:00,28.8,27.8,30.26,West,268,1.0,5.0,96,0.00,,,0.00,Wunderground v.1.15,2013-01-28 16:56:00,
2013-01-28 12:00:00,28.8,27.8,30.26,WNW,303,1.0,1.0,96,0.00,,,0.00,Wunderground v.1.15,2013-01-28 17:00:00,
2013-01-28 12:01:00,28.8,27.8,30.26,WNW,292,1.0,6.0,96,0.00,,,0.00,Wunderground v.1.15,2013-01-28 17:01:00,
2013-01-28 12:03:00,28.7,27.7,30.25,WNW,290,1.0,6.0,96,0.00,,,0.00,Wunderground v.1.15,2013-01-28 17:03:00,
2013-01-28 12:06:00,28.7,27.7,30.25,West,268,1.0,6.0,96,0.00,,,0.00,Wunderground v.1.15,2013-01-28 17:06:00,
2013-01-28 12:07:00,28.7,27.7,30.26,WNW,284,1.0,6.0,96,0.00,,,0.00,Wunderground v.1.15,2013-01-28 17:07:00,
2013-01-28 12:09:00,28.7,27.7,30.25,WNW,298,1.0,6.0,96,0.00,,,0.00,Wunderground v.1.15,2013-01-28 17:09:00,
2013-01-28 12:12:00,28.7,27.7,30.25,West,276,1.0,1.0,96,0.00,,,0.00,Wunderground v.1.15,2013-01-28 17:12:00,
2013-01-28 12:13:00,28.6,27.6,30.25,SSW,205,1.0,1.0,96,0.00,,,0.00,Wunderground v.1.15,2013-01-28 17:13:00,
2013-01-28 12:14:00,28.6,27.6,30.25,SW,236,1.0,1.0,96,0.00,,,0.00,Wunderground v.1.15,2013-01-28 17:14:00,
2013-01-28 12:17:00,28.6,27.6,30.24,West,273,1.0,3.0,96,0.00,,,0.00,Wunderground v.1.15,2013-01-28 17:17:00,
2013-01-28 12:18:00,28.6,27.6,30.24,WSW,258,1.0,3.0,96,0.00,,,0.00,Wunderground v.1.15,2013-01-28 17:18:00,
2013-01-28 12:20:00,28.5,27.5,30.24,WNW,288,1.0,3.0,96,0.00,,,0.00,Wunderground v.1.15,2013-01-28 17:20:00,
2013-01-28 12:21:00,28.6,27.6,30.24,West,279,1.0,3.0,96,0.00,,,0.00,Wunderground v.1.15,2013-01-28 17:21:00,
2013-01-28 12:24:00,28.6,27.6,30.23,WNW,294,1.0,3.0,96,0.00,,,0.00,Wunderground v.1.15,2013-01-28 17:24:00,
2013-01-28 12:26:00,28.6,27.6,30.23,WNW,291,1.0,3.0,96,0.00,,,0.00,Wunderground v.1.15,2013-01-28 17:26:00,
2013-01-28 12:27:00,28.6,27.6,30.23,WNW,291,1.0,3.0,96,0.00,,,0.00,Wunderground v.1.15,2013-01-28 17:27:00,
2013-01-28 12:28:00,28.7,27.7,30.23,WNW,290,1.0,3.0,96,0.00,,,0.00,Wunderground v.1.15,2013-01-28 17:28:00,
2013-01-28 12:29:00,28.7,27.7,30.23,West,277,1.0,3.0,96,0.00,,,0.00,Wunderground v.1.15,2013-01-28 17:29:00,
2013-01-28 12:32:00,28.7,27.7,30.22,WNW,284,1.0,7.0,96,0.00,,,0.00,Wunderground v.1.15,2013-01-28 17:32:00,
2013-01-28 12:33:00,28.7,27.7,30.22,West,272,1.0,7.0,96,0.00,,,0.00,Wunderground v.1.15,2013-01-28 17:33:00,
2013-01-28 12:35:00,28.7,27.7,30.22,West,272,0.0,7.0,96,0.00,,,0.00,Wunderground v.1.15,2013-01-28 17:35:00,
2013-01-28 12:39:00,28.8,27.8,30.22,West,274,0.0,7.0,96,0.00,,,0.00,Wunderground v.1.15,2013-01-28 17:39:00,
2013-01-28 12:41:00,28.8,27.8,30.22,West,273,0.0,0.0,96,0.00,,,0.00,Wunderground v.1.15,2013-01-28 17:41:00,
2013-01-28 12:43:00,28.9,27.9,30.22,West,281,0.0,2.0,96,0.00,,,0.00,Wunderground v.1.15,2013-01-28 17:43:00,
2013-01-28 12:46:00,28.9,27.9,30.22,WNW,288,0.0,2.0,96,0.00,,,0.00,Wunderground v.1.15,2013-01-28 17:46:00,
2013-01-28 12:47:00,28.8,27.8,30.22,WNW,287,0.0,2.0,96,0.00,,,0.00,Wunderground v.1.15,2013-01-28 17:47:00,
2013-01-28 12:48:00,28.8,27.8,30.22,NW,306,0.0,2.0,96,0.00,,,0.00,Wunderground v.1.15,2013-01-28 17:48:00,
2013-01-28 12:53:00,28.8,27.8,30.21,West,259,1.0,3.0,96,0.00,,,0.00,Wunderground v.1.15,2013-01-28 17:53:00,
2013-01-28 12:55:00,28.8,27.8,30.21,West,259,1.0,3.0,96,0.00,,,0.00,Wunderground v.1.15,2013-01-28 17:55:00,
2013-01-28 12:58:00,28.9,27.9,30.21,WNW,300,1.0,3.0,96,0.00,,,0.00,Wunderground v.1.15,2013-01-28 17:58:00,
2013-01-28 13:00:00,29.0,28.0,30.20,WNW,296,1.0,1.0,96,0.00,,,0.00,Wunderground v.1.15,2013-01-28 18:00:00,
2013-01-28 13:02:00,29.0,28.0,30.20,West,277,1.0,5.0,96,0.00,,,0.00,Wunderground v.1.15,2013-01-28 18:02:00,
2013-01-28 13:03:00,29.0,28.0,30.20,West,272,1.0,5.0,96,0.00,,,0.00,Wunderground v.1.15,2013-01-28 18:03:00,
2013-01-28 13:06:00,29.0,28.0,30.20,WNW,283,1.0,5.0,96,0.00,,,0.00,Wunderground v.1.15,2013-01-28 18:06:00,
2013-01-28 13:08:00,29.0,28.0,30.20,West,275,1.0,5.0,96,0.00,,,0.00,Wunderground v.1.15,2013-01-28 18:08:00,
2013-01-28 13:09:00,29.0,28.0,30.20,West,275,1.0,5.0,96,0.00,,,0.00,Wunderground v.1.15,2013-01-28 18:09:00,
2013-01-28 13:12:00,29.0,28.0,30.20,West,269,1.0,1.0,96,0.00,,,0.00,Wunderground v.1.15,2013-01-28 18:12:00,
2013-01-28 13:13:00,29.0,28.0,30.19,West,273,1.0,3.0,96,0.00,,,0.00,Wunderground v.1.15,2013-01-28 18:13:00,
2013-01-28 13:17:00,29.0,28.0,30.19,WNW,287,1.0,3.0,96,0.00,,,0.00,Wunderground v.1.15,2013-01-28 18:17:00,
2013-01-28 13:18:00,29.0,28.0,30.19,WNW,295,1.0,3.0,96,0.00,,,0.00,Wunderground v.1.15,2013-01-28 18:18:00,
2013-01-28 13:19:00,29.0,28.0,30.19,WNW,295,1.0,3.0,96,0.00,,,0.00,Wunderground v.1.15,2013-01-28 18:19:00,
2013-01-28 13:23:00,29.2,28.2,30.19,West,264,1.0,2.0,96,0.00,,,0.00,Wunderground v.1.15,2013-01-28 18:23:00,
2013-01-28 13:24:00,29.1,28.1,30.19,West,264,1.0,3.0,96,0.00,,,0.00,Wunderground v.1.15,2013-01-28 18:24:00,
2013-01-28 13:25:00,29.2,28.2,30.19,West,264,1.0,3.0,96,0.00,,,0.00,Wunderground v.1.15,2013-01-28 18:25:00,
2013-01-28 13:27:00,29.1,28.1,30.19,West,271,1.0,3.0,96,0.00,,,0.00,Wunderground v.1.15,2013-01-28 18:27:00,
2013-01-28 13:28:00,29.2,28.2,30.18,West,271,1.0,3.0,96,0.00,,,0.00,Wunderground v.1.15,2013-01-28 18:28:00,
2013-01-28 13:29:00,29.3,28.3,30.18,WSW,250,1.0,3.0,96,0.00,,,0.00,Wunderground v.1.15,2013-01-28 18:29:00,
2013-01-28 13:35:00,29.3,28.3,30.18,West,276,1.0,5.0,96,0.00,,,0.00,Wunderground v.1.15,2013-01-28 18:35:00,
2013-01-28 13:36:00,29.3,28.3,30.18,West,259,1.0,5.0,96,0.00,,,0.00,Wunderground v.1.15,2013-01-28 18:36:00,
2013-01-28 13:40:00,29.3,28.3,30.18,WNW,292,1.0,2.0,96,0.00,,,0.00,Wunderground v.1.15,2013-01-28 18:40:00,
2013-01-28 13:41:00,29.3,28.3,30.18,WNW,292,1.0,2.0,96,0.00,,,0.00,Wunderground v.1.15,2013-01-28 18:41:00,
2013-01-28 13:42:00,29.3,28.3,30.18,WNW,292,1.0,2.0,96,0.00,,,0.00,Wunderground v.1.15,2013-01-28 18:42:00,
2013-01-28 13:47:00,29.4,28.4,30.17,NW,323,1.0,4.0,96,0.00,,,0.00,Wunderground v.1.15,2013-01-28 18:47:00,
2013-01-28 13:48:00,29.4,28.4,30.17,WSW,255,0.0,4.0,96,0.00,,,0.00,Wunderground v.1.15,2013-01-28 18:48:00,
2013-01-28 13:49:00,29.4,28.4,30.17,West,271,0.0,4.0,96,0.00,,,0.00,Wunderground v.1.15,2013-01-28 18:49:00,
2013-01-28 13:54:00,29.5,28.5,30.17,WNW,298,1.0,1.0,96,0.00,,,0.00,Wunderground v.1.15,2013-01-28 18:54:00,
2013-01-28 13:58:00,29.5,28.5,30.17,WNW,286,1.0,2.0,96,0.00,,,0.00,Wunderground v.1.15,2013-01-28 18:58:00,
2013-01-28 14:00:00,29.5,28.5,30.16,WNW,287,0.0,0.0,96,0.00,,,0.00,Wunderground v.1.15,2013-01-28 19:00:00,
2013-01-28 14:01:00,29.5,28.5,30.16,WNW,283,0.0,3.0,96,0.00,,,0.00,Wunderground v.1.15,2013-01-28 19:01:00,
2013-01-28 14:03:00,29.6,28.6,30.16,West,265,1.0,6.0,96,0.00,,,0.00,Wunderground v.1.15,2013-01-28 19:03:00,
2013-01-28 14:09:00,29.7,28.7,30.16,West,269,1.0,6.0,96,0.00,,,0.00,Wunderground v.1.15,2013-01-28 19:09:00,
2013-01-28 14:10:00,29.8,28.8,30.16,West,276,1.0,1.0,96,0.00,,,0.00,Wunderground v.1.15,2013-01-28 19:10:00,
2013-01-28 14:12:00,29.8,28.8,30.15,West,273,0.0,1.0,96,0.00,,,0.00,Wunderground v.1.15,2013-01-28 19:12:00,
2013-01-28 14:14:00,29.9,28.9,30.15,West,274,0.0,1.0,96,0.00,,,0.00,Wunderground v.1.15,2013-01-28 19:14:00,
2013-01-28 14:19:00,29.9,28.9,30.15,WNW,288,1.0,4.0,96,0.00,,,0.00,Wunderground v.1.15,2013-01-28 19:19:00,
2013-01-28 14:20:00,29.9,28.9,30.15,WNW,289,1.0,1.0,96,0.00,,,0.00,Wunderground v.1.15,2013-01-28 19:20:00,
2013-01-28 14:25:00,29.8,28.8,30.15,WNW,284,1.0,4.0,96,0.00,,,0.00,Wunderground v.1.15,2013-01-28 19:25:00,
2013-01-28 14:29:00,29.8,28.8,30.15,WNW,298,1.0,4.0,96,0.00,,,0.00,Wunderground v.1.15,2013-01-28 19:29:00,
2013-01-28 14:30:00,29.8,28.8,30.15,WNW,292,1.0,3.0,96,0.00,,,0.00,Wunderground v.1.15,2013-01-28 19:30:00,
2013-01-28 14:31:00,29.8,28.8,30.15,WNW,292,1.0,6.0,96,0.00,,,0.00,Wunderground v.1.15,2013-01-28 19:31:00,
2013-01-28 14:33:00,29.8,28.8,30.15,WNW,284,1.0,6.0,96,0.00,,,0.00,Wunderground v.1.15,2013-01-28 19:33:00,
2013-01-28 14:36:00,29.8,28.8,30.15,WNW,292,1.0,6.0,96,0.00,,,0.00,Wunderground v.1.15,2013-01-28 19:36:00,
2013-01-28 14:39:00,29.9,28.9,30.15,WNW,291,1.0,6.0,96,0.00,,,0.00,Wunderground v.1.15,2013-01-28 19:39:00,
2013-01-28 14:42:00,29.9,28.9,30.15,WNW,290,0.0,1.0,96,0.00,,,0.00,Wunderground v.1.15,2013-01-28 19:42:00,
2013-01-28 14:43:00,29.9,28.9,30.15,NW,304,0.0,1.0,96,0.00,,,0.00,Wunderground v.1.15,2013-01-28 19:43:00,
2013-01-28 14:47:00,29.8,28.8,30.15,WNW,303,0.0,2.0,96,0.00,,,0.00,Wunderground v.1.15,2013-01-28 19:47:00,
2013-01-28 14:49:00,29.8,28.8,30.15,WNW,303,0.0,3.0,96,0.00,,,0.00,Wunderground v.1.15,2013-01-28 19:49:00,
2013-01-28 14:50:00,29.8,28.8,30.15,WNW,303,0.0,2.0,96,0.00,,,0.00,Wunderground v.1.15,2013-01-28 19:50:00,
2013-01-28 14:52:00,29.8,28.8,30.15,WNW,303,1.0,2.0,96,0.00,,,0.00,Wunderground v.1.15,2013-01-28 19:52:00,
2013-01-28 14:55:00,29.8,28.8,30.15,WNW,303,1.0,2.0,96,0.00,,,0.00,Wunderground v.1.15,2013-01-28 19:55:00,
2013-01-28 14:58:00,29.9,28.9,30.15,WNW,288,1.0,2.0,96,0.00,,,0.00,Wunderground v.1.15,2013-01-28 19:58:00,
2013-01-28 15:01:00,29.9,28.9,30.15,WNW,287,1.0,5.0,96,0.00,,,0.00,Wunderground v.1.15,2013-01-28 20:01:00,
2013-01-28 15:02:00,29.9,28.9,30.15,WNW,287,1.0,5.0,96,0.00,,,0.00,Wunderground v.1.15,2013-01-28 20:02:00,
2013-01-28 15:03:00,29.9,28.9,30.15,WNW,288,1.0,5.0,96,0.00,,,0.00,Wunderground v.1.15,2013-01-28 20:03:00,
2013-01-28 15:07:00,29.9,28.9,30.15,WNW,284,1.0,5.0,96,0.00,,,0.00,Wunderground v.1.15,2013-01-28 20:07:00,
2013-01-28 15:09:00,30.0,29.0,30.15,WNW,285,1.0,5.0,96,0.00,,,0.00,Wunderground v.1.15,2013-01-28 20:09:00,
2013-01-28 15:13:00,30.1,29.1,30.15,WNW,285,1.0,1.0,96,0.00,,,0.00,Wunderground v.1.15,2013-01-28 20:13:00,
2013-01-28 15:14:00,30.1,29.1,30.15,WNW,285,1.0,1.0,96,0.00,,,0.00,Wunderground v.1.15,2013-01-28 20:14:00,
2013-01-28 15:18:00,30.1,29.1,30.14,WNW,284,0.0,3.0,96,0.00,,,0.00,Wunderground v.1.15,2013-01-28 20:18:00,
2013-01-28 15:20:00,30.1,29.1,30.14,WNW,288,0.0,0.0,96,0.00,,,0.00,Wunderground v.1.15,2013-01-28 20:20:00,
2013-01-28 15:22:00,30.1,29.1,30.14,WNW,287,0.0,0.0,96,0.00,,,0.00,Wunderground v.1.15,2013-01-28 20:22:00,
2013-01-28 15:24:00,30.1,29.1,30.14,WNW,287,0.0,0.0,96,0.00,,,0.00,Wunderground v.1.15,2013-01-28 20:24:00,
2013-01-28 15:26:00,30.1,29.1,30.14,WNW,286,0.0,0.0,96,0.00,,,0.00,Wunderground v.1.15,2013-01-28 20:26:00,
2013-01-28 15:28:00,30.1,29.1,30.14,WNW,287,0.0,0.0,96,0.00,,,0.00,Wunderground v.1.15,2013-01-28 20:28:00,
2013-01-28 15:31:00,30.1,29.1,30.15,WNW,288,0.0,4.0,96,0.00,,,0.00,Wunderground v.1.15,2013-01-28 20:31:00,
2013-01-28 15:33:00,30.1,29.1,30.14,West,280,0.0,4.0,96,0.00,,,0.00,Wunderground v.1.15,2013-01-28 20:33:00,
2013-01-28 15:36:00,30.2,29.2,30.15,West,280,1.0,4.0,96,0.00,,,0.00,Wunderground v.1.15,2013-01-28 20:36:00,
2013-01-28 15:37:00,30.2,29.2,30.15,WNW,282,1.0,4.0,96,0.00,,,0.00,Wunderground v.1.15,2013-01-28 20:37:00,
2013-01-28 15:38:00,30.2,29.2,30.15,WNW,282,1.0,4.0,96,0.00,,,0.00,Wunderground v.1.15,2013-01-28 20:38:00,
2013-01-28 15:43:00,30.3,29.3,30.14,WNW,286,1.0,1.0,96,0.00,,,0.00,Wunderground v.1.15,2013-01-28 20:43:00,
2013-01-28 15:44:00,30.3,29.3,30.14,WNW,284,1.0,1.0,96,0.00,,,0.00,Wunderground v.1.15,2013-01-28 20:44:00,
2013-01-28 15:45:00,30.3,29.3,30.14,WNW,284,1.0,1.0,96,0.00,,,0.00,Wunderground v.1.15,2013-01-28 20:45:00,
2013-01-28 15:46:00,30.3,29.3,30.14,WNW,284,1.0,2.0,96,0.00,,,0.00,Wunderground v.1.15,2013-01-28 20:46:00,
2013-01-28 15:50:00,30.3,29.3,30.14,West,273,1.0,1.0,96,0.00,,,0.00,Wunderground v.1.15,2013-01-28 20:50:00,
2013-01-28 15:51:00,30.4,29.4,30.14,West,277,1.0,2.0,96,0.00,,,0.00,Wunderground v.1.15,2013-01-28 20:51:00,
2013-01-28 15:52:00,30.4,29.4,30.14,West,278,1.0,2.0,96,0.00,,,0.00,Wunderground v.1.15,2013-01-28 20:52:00,
2013-01-28 15:53:00,30.4,29.4,30.14,West,277,1.0,2.0,96,0.00,,,0.00,Wunderground v.1.15,2013-01-28 20:53:00,
2013-01-28 15:57:00,30.5,29.5,30.14,West,277,1.0,3.0,96,0.00,,,0.00,Wunderground v.1.15,2013-01-28 20:57:00,
2013-01-28 15:58:00,30.5,29.5,30.14,WNW,282,1.0,3.0,96,0.00,,,0.00,Wunderground v.1.15,2013-01-28 20:58:00,
2013-01-28 15:59:00,30.5,29.5,30.14,WNW,282,1.0,3.0,96,0.00,,,0.00,Wunderground v.1.15,2013-01-28 20:59:00,
2013-01-28 16:01:00,30.5,29.5,30.14,West,280,1.0,3.0,96,0.00,,,0.00,Wunderground v.1.15,2013-01-28 21:01:00,
2013-01-28 16:02:00,30.5,29.5,30.14,WNW,293,2.0,3.0,96,0.00,,,0.00,Wunderground v.1.15,2013-01-28 21:02:00,
2013-01-28 16:04:00,30.5,29.5,30.14,WNW,291,1.0,3.0,96,0.00,,,0.00,Wunderground v.1.15,2013-01-28 21:04:00,
2013-01-28 16:05:00,30.5,29.5,30.14,WNW,291,1.0,3.0,96,0.00,,,0.00,Wunderground v.1.15,2013-01-28 21:05:00,
2013-01-28 16:07:00,30.6,29.6,30.14,WNW,290,1.0,3.0,96,0.00,,,0.00,Wunderground v.1.15,2013-01-28 21:07:00,
2013-01-28 16:08:00,30.6,29.6,30.14,WNW,294,1.0,3.0,96,0.00,,,0.00,Wunderground v.1.15,2013-01-28 21:08:00,
2013-01-28 16:10:00,30.6,29.6,30.14,WNW,294,1.0,1.0,96,0.00,,,0.00,Wunderground v.1.15,2013-01-28 21:10:00,
2013-01-28 16:12:00,30.6,29.6,30.14,WNW,292,0.0,2.0,96,0.00,,,0.00,Wunderground v.1.15,2013-01-28 21:12:00,
2013-01-28 16:14:00,30.6,29.6,30.14,WNW,292,1.0,2.0,96,0.00,,,0.00,Wunderground v.1.15,2013-01-28 21:14:00,
2013-01-28 16:15:00,30.6,29.6,30.14,WNW,291,1.0,2.0,96,0.00,,,0.00,Wunderground v.1.15,2013-01-28 21:15:00,
2013-01-28 16:18:00,30.6,29.6,30.14,WNW,291,1.0,2.0,96,0.00,,,0.00,Wunderground v.1.15,2013-01-28 21:18:00,
2013-01-28 16:19:00,30.6,29.6,30.14,WNW,291,1.0,2.0,96,0.00,,,0.00,Wunderground v.1.15,2013-01-28 21:19:00,
2013-01-28 16:21:00,30.6,29.6,30.14,WNW,291,1.0,1.0,96,0.00,,,0.00,Wunderground v.1.15,2013-01-28 21:21:00,
2013-01-28 16:23:00,30.6,29.6,30.14,WNW,291,1.0,1.0,96,0.00,,,0.00,Wunderground v.1.15,2013-01-28 21:23:00,
2013-01-28 16:25:00,30.7,29.7,30.14,WNW,290,1.0,1.0,96,0.00,,,0.00,Wunderground v.1.15,2013-01-28 21:25:00,
2013-01-28 16:29:00,30.7,29.7,30.14,WNW,286,1.0,2.0,96,0.00,,,0.00,Wunderground v.1.15,2013-01-28 21:29:00,
2013-01-28 16:31:00,30.7,29.7,30.14,WNW,286,1.0,4.0,96,0.00,,,0.00,Wunderground v.1.15,2013-01-28 21:31:00,
2013-01-28 16:32:00,30.8,29.8,30.14,WNW,286,1.0,4.0,96,0.00,,,0.00,Wunderground v.1.15,2013-01-28 21:32:00,
2013-01-28 16:37:00,30.8,29.8,30.14,WNW,291,1.0,4.0,96,0.00,,,0.00,Wunderground v.1.15,2013-01-28 21:37:00,
2013-01-28 16:39:00,30.8,29.8,30.14,WNW,290,0.0,4.0,96,0.00,,,0.00,Wunderground v.1.15,2013-01-28 21:39:00,
2013-01-28 16:42:00,30.8,29.8,30.14,WNW,290,0.0,2.0,96,0.00,,,0.00,Wunderground v.1.15,2013-01-28 21:42:00,
2013-01-28 16:43:00,30.8,29.8,30.14,WNW,290,0.0,2.0,96,0.00,,,0.00,Wunderground v.1.15,2013-01-28 21:43:00,
2013-01-28 16:47:00,30.8,29.8,30.14,WNW,288,0.0,2.0,96,0.00,,,0.00,Wunderground v.1.15,2013-01-28 21:47:00,
2013-01-28 16:48:00,30.8,29.8,30.14,WNW,289,0.0,2.0,96,0.00,,,0.00,Wunderground v.1.15,2013-01-28 21:48:00,
2013-01-28 16:53:00,30.9,29.9,30.14,WNW,288,0.0,2.0,96,0.00,,,0.00,Wunderground v.1.15,2013-01-28 21:53:00,
2013-01-28 16:54:00,30.8,29.8,30.14,WNW,288,0.0,2.0,96,0.00,,,0.00,Wunderground v.1.15,2013-01-28 21:54:00,
2013-01-28 16:59:00,31.0,30.0,30.14,WNW,293,1.0,3.0,96,0.00,,,0.00,Wunderground v.1.15,2013-01-28 21:59:00,
2013-01-28 17:00:00,30.9,29.9,30.14,WNW,293,1.0,1.0,96,0.00,,,0.00,Wunderground v.1.15,2013-01-28 22:00:00,
2013-01-28 17:01:00,31.0,30.0,30.14,WNW,293,1.0,2.0,96,0.00,,,0.00,Wunderground v.1.15,2013-01-28 22:01:00,
2013-01-28 17:02:00,31.0,30.0,30.14,WNW,293,1.0,4.0,96,0.00,,,0.00,Wunderground v.1.15,2013-01-28 22:02:00,
2013-01-28 17:08:00,31.0,30.0,30.14,WNW,290,1.0,4.0,96,0.00,,,0.00,Wunderground v.1.15,2013-01-28 22:08:00,
2013-01-28 17:10:00,31.1,30.1,30.14,WNW,289,1.0,1.0,96,0.00,,,0.00,Wunderground v.1.15,2013-01-28 22:10:00,
2013-01-28 17:12:00,31.1,30.1,30.14,WNW,289,1.0,3.0,96,0.00,,,0.00,Wunderground v.1.15,2013-01-28 22:12:00,
2013-01-28 17:13:00,31.1,30.1,30.14,WNW,287,1.0,4.0,96,0.00,,,0.00,Wunderground v.1.15,2013-01-28 22:13:00,
2013-01-28 17:15:00,31.1,30.1,30.14,WNW,286,1.0,4.0,96,0.00,,,0.00,Wunderground v.1.15,2013-01-28 22:15:00,
2013-01-28 17:18:00,31.2,30.2,30.14,WNW,288,1.0,4.0,96,0.00,,,0.00,Wunderground v.1.15,2013-01-28 22:18:00,
2013-01-28 17:20:00,31.2,30.2,30.13,WNW,288,1.0,1.0,96,0.00,,,0.00,Wunderground v.1.15,2013-01-28 22:20:00,
2013-01-28 17:24:00,31.3,30.5,30.13,WNW,288,1.0,1.0,97,0.00,,,0.00,Wunderground v.1.15,2013-01-28 22:24:00,
2013-01-28 17:28:00,31.4,30.6,30.14,WNW,288,0.0,1.0,97,0.00,,,0.00,Wunderground v.1.15,2013-01-28 22:28:00,
2013-01-28 17:30:00,31.4,30.6,30.14,WNW,288,0.0,0.0,97,0.00,,,0.00,Wunderground v.1.15,2013-01-28 22:30:00,
2013-01-28 17:33:00,31.4,30.6,30.14,WNW,288,0.0,3.0,97,0.00,,,0.00,Wunderground v.1.15,2013-01-28 22:33:00,
2013-01-28 17:34:00,31.4,30.6,30.14,WNW,287,0.0,3.0,97,0.00,,,0.00,Wunderground v.1.15,2013-01-28 22:34:00,
2013-01-28 17:35:00,31.4,30.6,30.14,WNW,287,0.0,3.0,97,0.00,,,0.00,Wunderground v.1.15,2013-01-28 22:35:00,
2013-01-28 17:39:00,31.4,30.6,30.14,WNW,287,1.0,3.0,97,0.00,,,0.00,Wunderground v.1.15,2013-01-28 22:39:00,
2013-01-28 17:42:00,31.5,30.7,30.14,WNW,288,1.0,1.0,97,0.00,,,0.00,Wunderground v.1.15,2013-01-28 22:42:00,
2013-01-28 17:43:00,31.5,30.7,30.14,WNW,288,1.0,1.0,97,0.00,,,0.00,Wunderground v.1.15,2013-01-28 22:43:00,
2013-01-28 17:44:00,31.5,30.7,30.14,WNW,287,1.0,1.0,97,0.00,,,0.00,Wunderground v.1.15,2013-01-28 22:44:00,
2013-01-28 17:47:00,31.5,30.7,30.13,WNW,288,0.0,1.0,97,0.00,,,0.00,Wunderground v.1.15,2013-01-28 22:47:00,
2013-01-28 17:49:00,31.5,30.7,30.13,WNW,288,0.0,1.0,97,0.00,,,0.00,Wunderground v.1.15,2013-01-28 22:49:00,
2013-01-28 17:50:00,31.5,30.7,30.13,WNW,288,0.0,0.0,97,0.00,,,0.00,Wunderground v.1.15,2013-01-28 22:50:00,
2013-01-28 17:51:00,31.5,30.7,30.13,WNW,288,0.0,0.0,97,0.00,,,0.00,Wunderground v.1.15,2013-01-28 22:51:00,
2013-01-28 17:54:00,31.6,30.8,30.13,WNW,288,0.0,2.0,97,0.00,,,0.00,Wunderground v.1.15,2013-01-28 22:54:00,
2013-01-28 17:55:00,31.6,30.8,30.13,WNW,288,0.0,2.0,97,0.00,,,0.00,Wunderground v.1.15,2013-01-28 22:55:00,
2013-01-28 17:56:00,31.6,30.8,30.13,WNW,288,0.0,2.0,97,0.00,,,0.00,Wunderground v.1.15,2013-01-28 22:56:00,
2013-01-28 18:01:00,31.7,30.9,30.13,WNW,288,1.0,4.0,97,0.00,,,0.00,Wunderground v.1.15,2013-01-28 23:01:00,
2013-01-28 18:02:00,31.7,30.9,30.13,West,279,1.0,4.0,97,0.00,,,0.00,Wunderground v.1.15,2013-01-28 23:02:00,
2013-01-28 18:04:00,31.7,30.9,30.14,West,279,1.0,4.0,97,0.00,,,0.00,Wunderground v.1.15,2013-01-28 23:04:00,
2013-01-28 18:05:00,31.7,30.9,30.13,West,279,1.0,4.0,97,0.00,,,0.00,Wunderground v.1.15,2013-01-28 23:05:00,
2013-01-28 18:09:00,31.7,30.9,30.14,West,279,0.0,4.0,97,0.00,,,0.00,Wunderground v.1.15,2013-01-28 23:09:00,
2013-01-28 18:10:00,31.8,31.0,30.14,West,279,0.0,0.0,97,0.00,,,0.00,Wunderground v.1.15,2013-01-28 23:10:00,
2013-01-28 18:12:00,31.8,31.0,30.14,West,279,0.0,0.0,97,0.00,,,0.00,Wunderground v.1.15,2013-01-28 23:12:00,
2013-01-28 18:14:00,31.9,31.1,30.13,West,279,0.0,2.0,97,0.00,,,0.00,Wunderground v.1.15,2013-01-28 23:14:00,
2013-01-28 18:16:00,31.9,31.1,30.13,West,280,0.0,2.0,97,0.00,,,0.00,Wunderground v.1.15,2013-01-28 23:16:00,
2013-01-28 18:17:00,31.9,31.1,30.14,West,279,1.0,2.0,97,0.00,,,0.00,Wunderground v.1.15,2013-01-28 23:17:00,
2013-01-28 18:19:00,32.0,31.2,30.14,West,279,1.0,2.0,97,0.00,,,0.00,Wunderground v.1.15,2013-01-28 23:19:00,
2013-01-28 18:20:00,32.0,31.2,30.14,West,279,1.0,1.0,97,0.00,,,0.00,Wunderground v.1.15,2013-01-28 23:20:00,
2013-01-28 18:24:00,32.1,31.3,30.14,West,279,1.0,1.0,97,0.00,,,0.00,Wunderground v.1.15,2013-01-28 23:24:00,
2013-01-28 18:27:00,32.3,31.5,30.14,West,273,1.0,2.0,97,0.00,,,0.00,Wunderground v.1.15,2013-01-28 23:27:00,
2013-01-28 18:30:00,32.5,31.7,30.14,WSW,245,1.0,1.0,97,0.00,,,0.00,Wunderground v.1.15,2013-01-28 23:30:00,
2013-01-28 18:31:00,32.5,31.7,30.13,WSW,254,1.0,3.0,97,0.00,,,0.00,Wunderground v.1.15,2013-01-28 23:31:00,
2013-01-28 18:33:00,32.6,31.8,30.13,WSW,255,0.0,3.0,97,0.00,,,0.00,Wunderground v.1.15,2013-01-28 23:33:00,
2013-01-28 18:35:00,32.6,31.8,30.13,West,263,1.0,3.0,97,0.00,,,0.00,Wunderground v.1.15,2013-01-28 23:35:00,
2013-01-28 18:36:00,32.8,32.0,30.13,West,259,1.0,3.0,97,0.00,,,0.00,Wunderground v.1.15,2013-01-28 23:36:00,
2013-01-28 18:39:00,32.8,32.0,30.13,West,259,1.0,3.0,97,0.00,,,0.00,Wunderground v.1.15,2013-01-28 23:39:00,
2013-01-28 18:41:00,32.9,32.1,30.13,West,259,1.0,1.0,97,0.00,,,0.00,Wunderground v.1.15,2013-01-28 23:41:00,
2013-01-28 18:43:00,33.0,32.2,30.13,West,279,1.0,1.0,97,0.00,,,0.00,Wunderground v.1.15,2013-01-28 23:43:00,
2013-01-28 18:44:00,33.0,32.2,30.13,West,279,1.0,1.0,97,0.00,,,0.00,Wunderground v.1.15,2013-01-28 23:44:00,
2013-01-28 18:46:00,33.1,32.3,30.14,West,280,1.0,1.0,97,0.00,,,0.00,Wunderground v.1.15,2013-01-28 23:46:00,
2013-01-28 18:49:00,33.1,32.3,30.14,West,281,1.0,1.0,97,0.00,,,0.00,Wunderground v.1.15,2013-01-28 23:49:00,
2013-01-28 18:50:00,33.1,32.3,30.14,West,281,0.0,0.0,97,0.00,,,0.00,Wunderground v.1.15,2013-01-28 23:50:00,
2013-01-28 18:51:00,33.1,32.3,30.14,West,281,0.0,0.0,97,0.00,,,0.00,Wunderground v.1.15,2013-01-28 23:51:00,
2013-01-28 18:53:00,33.2,32.4,30.14,West,281,0.0,0.0,97,0.00,,,0.00,Wunderground v.1.15,2013-01-28 23:53:00,
2013-01-28 18:57:00,33.1,32.3,30.14,West,281,0.0,0.0,97,0.00,,,0.00,Wunderground v.1.15,2013-01-28 23:57:00,
2013-01-28 18:58:00,33.0,32.2,30.13,West,281,0.0,0.0,97,0.00,,,0.00,Wunderground v.1.15,2013-01-28 23:58:00,
2013-01-28 19:01:00,33.0,32.2,30.13,West,281,0.0,4.0,97,0.00,,,0.00,Wunderground v.1.15,2013-01-29 00:01:00,
2013-01-28 19:02:00,33.0,32.2,30.14,West,281,0.0,4.0,97,0.00,,,0.00,Wunderground v.1.15,2013-01-29 00:02:00,
2013-01-28 19:05:00,33.1,32.3,30.13,West,280,0.0,4.0,97,0.00,,,0.00,Wunderground v.1.15,2013-01-29 00:05:00,
2013-01-28 19:06:00,33.2,32.4,30.13,West,281,0.0,4.0,97,0.00,,,0.00,Wunderground v.1.15,2013-01-29 00:06:00,
2013-01-28 19:07:00,33.2,32.4,30.13,WNW,293,0.0,4.0,97,0.00,,,0.00,Wunderground v.1.15,2013-01-29 00:07:00,
2013-01-28 19:11:00,33.4,32.6,30.13,WNW,302,1.0,1.0,97,0.00,,,0.00,Wunderground v.1.15,2013-01-29 00:11:00,
2013-01-28 19:12:00,33.5,32.7,30.13,WNW,302,1.0,1.0,97,0.00,,,0.00,Wunderground v.1.15,2013-01-29 00:12:00,
2013-01-28 19:15:00,33.5,32.7,30.13,WNW,302,1.0,1.0,97,0.00,,,0.00,Wunderground v.1.15,2013-01-29 00:15:00,
2013-01-28 19:16:00,33.5,32.7,30.13,WNW,302,1.0,1.0,97,0.00,,,0.00,Wunderground v.1.15,2013-01-29 00:16:00,
2013-01-28 19:18:00,33.6,32.8,30.13,WNW,300,1.0,1.0,97,0.00,,,0.00,Wunderground v.1.15,2013-01-29 00:18:00,
2013-01-28 19:19:00,33.7,32.9,30.13,WNW,301,1.0,1.0,97,0.00,,,0.00,Wunderground v.1.15,2013-01-29 00:19:00,
2013-01-28 19:24:00,33.9,33.1,30.12,WNW,290,0.0,0.0,97,0.00,,,0.00,Wunderground v.1.15,2013-01-29 00:24:00,
2013-01-28 19:25:00,34.0,33.2,30.12,WNW,290,0.0,0.0,97,0.00,,,0.00,Wunderground v.1.15,2013-01-29 00:25:00,
2013-01-28 19:28:00,34.2,33.4,30.12,WNW,290,0.0,0.0,97,0.00,,,0.00,Wunderground v.1.15,2013-01-29 00:28:00,
2013-01-28 19:32:00,34.4,33.6,30.12,WNW,288,0.0,4.0,97,0.00,,,0.00,Wunderground v.1.15,2013-01-29 00:32:00,
2013-01-28 19:34:00,34.4,33.6,30.12,West,276,1.0,4.0,97,0.00,,,0.00,Wunderground v.1.15,2013-01-29 00:34:00,
2013-01-28 19:37:00,35.2,34.4,30.13,West,281,2.0,4.0,97,0.00,,,0.00,Wunderground v.1.15,2013-01-29 00:37:00,
2013-01-28 19:38:00,35.4,34.6,30.13,West,281,2.0,4.0,97,0.00,,,0.00,Wunderground v.1.15,2013-01-29 00:38:00,
2013-01-28 19:39:00,35.5,34.7,30.13,West,275,2.0,4.0,97,0.00,,,0.00,Wunderground v.1.15,2013-01-29 00:39:00,
2013-01-28 19:43:00,35.4,34.6,30.13,West,273,1.0,2.0,97,0.00,,,0.00,Wunderground v.1.15,2013-01-29 00:43:00,
2013-01-28 19:44:00,35.4,34.6,30.13,West,273,1.0,2.0,97,0.00,,,0.00,Wunderground v.1.15,2013-01-29 00:44:00,
2013-01-28 19:47:00,35.1,34.3,30.13,West,273,1.0,2.0,97,0.00,,,0.00,Wunderground v.1.15,2013-01-29 00:47:00,
2013-01-28 19:48:00,35.0,34.2,30.13,West,274,1.0,2.0,97,0.00,,,0.00,Wunderground v.1.15,2013-01-29 00:48:00,
2013-01-28 19:50:00,34.9,34.1,30.13,West,274,0.0,0.0,97,0.00,,,0.00,Wunderground v.1.15,2013-01-29 00:50:00,
2013-01-28 19:51:00,34.9,34.1,30.13,West,275,0.0,0.0,97,0.00,,,0.00,Wunderground v.1.15,2013-01-29 00:51:00,
2013-01-28 19:54:00,34.9,34.1,30.12,West,274,0.0,2.0,97,0.00,,,0.00,Wunderground v.1.15,2013-01-29 00:54:00,
2013-01-28 19:58:00,35.3,34.5,30.12,West,276,1.0,2.0,97,0.00,,,0.00,Wunderground v.1.15,2013-01-29 00:58:00,
2013-01-28 20:01:00,35.7,34.9,30.12,West,275,1.0,3.0,97,0.00,,,0.00,Wunderground v.1.15,2013-01-29 01:01:00,
2013-01-28 20:04:00,36.1,35.3,30.12,West,277,1.0,3.0,97,0.00,,,0.00,Wunderground v.1.15,2013-01-29 01:04:00,
2013-01-28 20:07:00,36.5,35.7,30.12,West,272,1.0,3.0,97,0.00,,,0.00,Wunderground v.1.15,2013-01-29 01:07:00,
2013-01-28 20:08:00,36.6,35.8,30.12,West,272,1.0,3.0,97,0.00,,,0.00,Wunderground v.1.15,2013-01-29 01:08:00,
2013-01-28 20:09:00,36.6,35.8,30.12,West,272,1.0,3.0,97,0.00,,,0.00,Wunderground v.1.15,2013-01-29 01:09:00,
2013-01-28 20:11:00,36.7,35.9,30.12,West,272,1.0,1.0,97,0.00,,,0.00,Wunderground v.1.15,2013-01-29 01:11:00,
2013-01-28 20:14:00,36.8,36.0,30.12,West,272,0.0,1.0,97,0.00,,,0.00,Wunderground v.1.15,2013-01-29 01:14:00,
2013-01-28 20:15:00,36.8,36.0,30.12,West,273,0.0,3.0,97,0.00,,,0.00,Wunderground v.1.15,2013-01-29 01:15:00,
2013-01-28 20:19:00,36.8,36.0,30.12,West,272,1.0,3.0,97,0.00,,,0.00,Wunderground v.1.15,2013-01-29 01:19:00,
2013-01-28 20:20:00,36.9,36.1,30.12,West,272,1.0,2.0,97,0.00,,,0.00,Wunderground v.1.15,2013-01-29 01:20:00,
2013-01-28 20:23:00,36.9,36.1,30.12,West,275,2.0,2.0,97,0.00,,,0.00,Wunderground v.1.15,2013-01-29 01:23:00,
2013-01-28 20:28:00,37.0,36.2,30.12,West,275,1.0,2.0,97,0.00,,,0.00,Wunderground v.1.15,2013-01-29 01:28:00,
2013-01-28 20:30:00,37.1,36.3,30.12,West,272,1.0,2.0,97,0.00,,,0.00,Wunderground v.1.15,2013-01-29 01:30:00,
2013-01-28 20:31:00,37.2,36.4,30.12,West,273,1.0,3.0,97,0.00,,,0.00,Wunderground v.1.15,2013-01-29 01:31:00,
2013-01-28 20:32:00,37.3,36.5,30.12,West,277,1.0,4.0,97,0.00,,,0.00,Wunderground v.1.15,2013-01-29 01:32:00,
2013-01-28 20:34:00,37.4,36.6,30.12,West,273,1.0,4.0,97,0.00,,,0.00,Wunderground v.1.15,2013-01-29 01:34:00,
2013-01-28 20:38:00,37.7,36.9,30.12,West,277,2.0,4.0,97,0.00,,,0.00,Wunderground v.1.15,2013-01-29 01:38:00,
2013-01-28 20:41:00,37.9,37.1,30.11,West,259,2.0,3.0,97,0.00,,,0.00,Wunderground v.1.15,2013-01-29 01:41:00,
2013-01-28 20:43:00,38.1,37.3,30.12,West,267,2.0,4.0,97,0.00,,,0.00,Wunderground v.1.15,2013-01-29 01:43:00,
2013-01-28 20:44:00,38.1,37.3,30.12,West,269,2.0,4.0,97,0.00,,,0.00,Wunderground v.1.15,2013-01-29 01:44:00,
2013-01-28 20:47:00,38.6,37.8,30.11,West,269,3.0,5.0,97,0.00,,,0.00,Wunderground v.1.15,2013-01-29 01:47:00,
2013-01-28 20:49:00,38.8,38.3,30.11,West,268,3.0,5.0,98,0.00,,,0.00,Wunderground v.1.15,2013-01-29 01:49:00,
2013-01-28 20:51:00,38.7,38.2,30.11,West,266,3.0,3.0,98,0.00,,,0.00,Wunderground v.1.15,2013-01-29 01:51:00,
2013-01-28 20:53:00,38.6,37.8,30.11,West,268,3.0,3.0,97,0.00,,,0.00,Wunderground v.1.15,2013-01-29 01:53:00,
2013-01-28 20:56:00,38.8,38.3,30.10,West,269,3.0,4.0,98,0.00,,,0.00,Wunderground v.1.15,2013-01-29 01:56:00,
2013-01-28 20:57:00,38.9,38.4,30.10,West,281,3.0,4.0,98,0.00,,,0.00,Wunderground v.1.15,2013-01-29 01:57:00,
2013-01-28 20:58:00,39.1,38.3,30.10,WNW,286,3.0,5.0,97,0.00,,,0.00,Wunderground v.1.15,2013-01-29 01:58:00,
2013-01-28 21:04:00,39.5,39.0,30.11,WNW,283,3.0,4.0,98,0.00,,,0.00,Wunderground v.1.15,2013-01-29 02:04:00,
2013-01-28 21:05:00,39.4,38.9,30.11,West,275,3.0,4.0,98,0.00,,,0.00,Wunderground v.1.15,2013-01-29 02:05:00,
2013-01-28 21:06:00,39.4,38.9,30.10,West,280,2.0,4.0,98,0.00,,,0.00,Wunderground v.1.15,2013-01-29 02:06:00,
2013-01-28 21:09:00,39.5,39.0,30.11,West,278,2.0,4.0,98,0.00,,,0.00,Wunderground v.1.15,2013-01-29 02:09:00,
2013-01-28 21:11:00,39.5,39.0,30.11,WNW,287,2.0,2.0,98,0.00,,,0.00,Wunderground v.1.15,2013-01-29 02:11:00,
2013-01-28 21:12:00,39.5,39.0,30.11,WNW,288,2.0,2.0,98,0.00,,,0.00,Wunderground v.1.15,2013-01-29 02:12:00,
2013-01-28 21:14:00,39.4,38.9,30.11,West,277,1.0,2.0,98,0.00,,,0.00,Wunderground v.1.15,2013-01-29 02:14:00,
2013-01-28 21:18:00,39.1,38.3,30.12,West,278,1.0,2.0,97,0.00,,,0.00,Wunderground v.1.15,2013-01-29 02:18:00,
2013-01-28 21:20:00,39.0,38.2,30.12,West,278,0.0,0.0,97,0.00,,,0.00,Wunderground v.1.15,2013-01-29 02:20:00,
2013-01-28 21:21:00,39.0,38.5,30.12,West,278,0.0,0.0,98,0.00,,,0.00,Wunderground v.1.15,2013-01-29 02:21:00,
2013-01-28 21:22:00,39.0,38.2,30.12,West,278,0.0,0.0,97,0.00,,,0.00,Wunderground v.1.15,2013-01-29 02:22:00,
2013-01-28 21:25:00,39.1,38.3,30.12,West,277,0.0,0.0,97,0.00,,,0.00,Wunderground v.1.15,2013-01-29 02:25:00,
2013-01-28 21:30:00,39.2,38.4,30.11,West,275,0.0,3.0,97,0.00,,,0.00,Wunderground v.1.15,2013-01-29 02:30:00,
2013-01-28 21:31:00,39.3,38.8,30.11,West,275,0.0,5.0,98,0.00,,,0.00,Wunderground v.1.15,2013-01-29 02:31:00,
2013-01-28 21:35:00,39.8,39.3,30.11,West,273,1.0,5.0,98,0.00,,,0.01,Wunderground v.1.15,2013-01-29 02:35:00,
2013-01-28 21:36:00,40.1,39.6,30.11,WNW,291,2.0,5.0,98,0.00,,,0.01,Wunderground v.1.15,2013-01-29 02:36:00,
2013-01-28 21:37:00,40.2,39.7,30.11,WNW,293,2.0,5.0,98,0.00,,,0.01,Wunderground v.1.15,2013-01-29 02:37:00,
2013-01-28 21:40:00,40.3,39.8,30.11,West,273,3.0,4.0,98,0.00,,,0.01,Wunderground v.1.15,2013-01-29 02:40:00,
2013-01-28 21:45:00,40.8,40.3,30.11,West,260,3.0,5.0,98,0.00,,,0.01,Wunderground v.1.15,2013-01-29 02:45:00,
2013-01-28 21:46:00,40.9,40.4,30.11,West,269,3.0,5.0,98,0.00,,,0.01,Wunderground v.1.15,2013-01-29 02:46:00,
2013-01-28 21:48:00,40.9,40.4,30.11,West,279,3.0,5.0,98,0.00,,,0.01,Wunderground v.1.15,2013-01-29 02:48:00,
2013-01-28 21:50:00,40.7,40.2,30.11,West,272,3.0,3.0,98,0.00,,,0.01,Wunderground v.1.15,2013-01-29 02:50:00,
2013-01-28 21:53:00,40.6,40.1,30.11,West,272,3.0,4.0,98,0.00,,,0.01,Wunderground v.1.15,2013-01-29 02:53:00,
2013-01-28 21:54:00,40.6,40.1,30.11,West,268,3.0,4.0,98,0.00,,,0.01,Wunderground v.1.15,2013-01-29 02:54:00,
2013-01-28 21:56:00,40.5,40.0,30.11,West,271,3.0,4.0,98,0.00,,,0.01,Wunderground v.1.15,2013-01-29 02:56:00,
2013-01-28 21:57:00,40.5,40.0,30.11,West,269,3.0,4.0,98,0.00,,,0.01,Wunderground v.1.15,2013-01-29 02:57:00,
2013-01-28 21:59:00,40.7,40.2,30.11,West,277,3.0,4.0,98,0.00,,,0.01,Wunderground v.1.15,2013-01-29 02:59:00,
2013-01-28 22:01:00,40.8,40.3,30.11,WNW,284,3.0,5.0,98,0.00,,,0.01,Wunderground v.1.15,2013-01-29 03:01:00,
2013-01-28 22:04:00,40.9,40.4,30.11,West,264,3.0,5.0,98,0.00,,,0.01,Wunderground v.1.15,2013-01-29 03:04:00,
2013-01-28 22:06:00,41.0,40.5,30.11,West,277,3.0,5.0,98,0.00,,,0.01,Wunderground v.1.15,2013-01-29 03:06:00,
2013-01-28 22:07:00,41.0,40.5,30.11,West,269,3.0,5.0,98,0.00,,,0.01,Wunderground v.1.15,2013-01-29 03:07:00,
2013-01-28 22:12:00,41.2,40.7,30.11,West,275,3.0,3.0,98,0.00,,,0.01,Wunderground v.1.15,2013-01-29 03:12:00,
2013-01-28 22:14:00,41.3,40.8,30.11,West,269,3.0,3.0,98,0.00,,,0.01,Wunderground v.1.15,2013-01-29 03:14:00,
2013-01-28 22:18:00,41.4,40.9,30.11,West,271,3.0,4.0,98,0.00,,,0.02,Wunderground v.1.15,2013-01-29 03:18:00,
2013-01-28 22:19:00,41.3,40.8,30.11,West,275,3.0,4.0,98,0.23,,,0.03,Wunderground v.1.15,2013-01-29 03:19:00,
2013-01-28 22:20:00,41.3,40.8,30.11,WNW,286,3.0,3.0,98,0.23,,,0.03,Wunderground v.1.15,2013-01-29 03:20:00,
2013-01-28 22:25:00,41.5,41.0,30.11,West,276,3.0,3.0,98,0.28,,,0.05,Wunderground v.1.15,2013-01-29 03:25:00,
2013-01-28 22:28:00,41.7,41.2,30.11,West,272,3.0,3.0,98,0.32,,,0.08,Wunderground v.1.15,2013-01-29 03:28:00,
2013-01-28 22:31:00,41.9,41.4,30.11,West,277,3.0,6.0,98,0.35,,,0.10,Wunderground v.1.15,2013-01-29 03:31:00,
2013-01-28 22:33:00,41.8,41.3,30.11,West,271,3.0,6.0,98,0.35,,,0.11,Wunderground v.1.15,2013-01-29 03:33:00,
2013-01-28 22:34:00,41.9,41.4,30.11,West,264,3.0,6.0,98,0.35,,,0.12,Wunderground v.1.15,2013-01-29 03:34:00,
2013-01-28 22:36:00,42.0,41.5,30.11,West,279,3.0,6.0,98,0.46,,,0.13,Wunderground v.1.15,2013-01-29 03:36:00,
2013-01-28 22:37:00,42.0,41.5,30.11,West,273,3.0,6.0,98,0.28,,,0.13,Wunderground v.1.15,2013-01-29 03:37:00,
2013-01-28 22:41:00,42.3,41.8,30.11,West,273,3.0,3.0,98,0.23,,,0.15,Wunderground v.1.15,2013-01-29 03:41:00,
2013-01-28 22:42:00,42.3,41.8,30.11,West,265,3.0,4.0,98,0.23,,,0.15,Wunderground v.1.15,2013-01-29 03:42:00,
2013-01-28 22:46:00,42.4,41.9,30.11,West,267,3.0,4.0,98,0.09,,,0.15,Wunderground v.1.15,2013-01-29 03:46:00,
2013-01-28 22:48:00,42.4,41.9,30.11,West,275,3.0,4.0,98,0.07,,,0.15,Wunderground v.1.15,2013-01-29 03:48:00,
2013-01-28 22:50:00,42.5,42.0,30.11,West,269,3.0,3.0,98,0.07,,,0.16,Wunderground v.1.15,2013-01-29 03:50:00,
2013-01-28 22:53:00,42.7,42.2,30.11,West,276,3.0,4.0,98,0.07,,,0.16,Wunderground v.1.15,2013-01-29 03:53:00,
2013-01-28 22:55:00,42.6,42.1,30.11,West,272,3.0,4.0,98,0.10,,,0.17,Wunderground v.1.15,2013-01-29 03:55:00,
2013-01-28 22:57:00,42.6,42.1,30.11,West,273,3.0,4.0,98,0.10,,,0.17,Wunderground v.1.15,2013-01-29 03:57:00,
2013-01-28 22:58:00,42.5,42.0,30.11,West,273,3.0,4.0,98,0.10,,,0.17,Wunderground v.1.15,2013-01-29 03:58:00,
2013-01-28 23:00:00,42.5,42.0,30.11,West,275,3.0,3.0,98,0.10,,,0.17,Wunderground v.1.15,2013-01-29 04:00:00,
2013-01-28 23:05:00,42.7,42.2,30.11,WNW,285,3.0,6.0,98,0.06,,,0.17,Wunderground v.1.15,2013-01-29 04:05:00,
2013-01-28 23:08:00,42.8,42.3,30.11,WNW,284,3.0,6.0,98,0.05,,,0.18,Wunderground v.1.15,2013-01-29 04:08:00,
2013-01-28 23:09:00,42.8,42.3,30.11,WNW,284,3.0,6.0,98,0.05,,,0.18,Wunderground v.1.15,2013-01-29 04:09:00,
2013-01-28 23:11:00,42.7,42.2,30.11,WNW,284,3.0,4.0,98,0.05,,,0.18,Wunderground v.1.15,2013-01-29 04:11:00,
2013-01-28 23:14:00,42.8,42.3,30.11,West,281,3.0,4.0,98,0.08,,,0.19,Wunderground v.1.15,2013-01-29 04:14:00,
2013-01-28 23:16:00,42.9,42.4,30.11,WNW,282,3.0,4.0,98,0.08,,,0.19,Wunderground v.1.15,2013-01-29 04:16:00,
2013-01-28 23:17:00,42.9,42.4,30.11,West,281,3.0,4.0,98,0.08,,,0.19,Wunderground v.1.15,2013-01-29 04:17:00,
2013-01-28 23:19:00,42.9,42.4,30.11,West,280,3.0,4.0,98,0.08,,,0.19,Wunderground v.1.15,2013-01-29 04:19:00,
2013-01-28 23:21:00,42.9,42.4,30.11,West,280,3.0,4.0,98,0.08,,,0.19,Wunderground v.1.15,2013-01-29 04:21:00,
2013-01-28 23:22:00,42.9,42.4,30.11,West,271,3.0,4.0,98,0.07,,,0.19,Wunderground v.1.15,2013-01-29 04:22:00,
2013-01-28 23:23:00,42.9,42.4,30.11,West,271,3.0,4.0,98,0.06,,,0.19,Wunderground v.1.15,2013-01-29 04:23:00,
2013-01-28 23:26:00,42.8,42.3,30.11,West,273,3.0,4.0,98,0.05,,,0.20,Wunderground v.1.15,2013-01-29 04:26:00,
2013-01-28 23:27:00,42.9,42.4,30.11,West,277,3.0,4.0,98,0.05,,,0.20,Wunderground v.1.15,2013-01-29 04:27:00,
2013-01-28 23:33:00,42.8,42.3,30.11,WNW,299,2.0,6.0,98,0.05,,,0.20,Wunderground v.1.15,2013-01-29 04:33:00,
2013-01-28 23:34:00,42.8,42.3,30.11,WNW,292,2.0,6.0,98,0.05,,,0.20,Wunderground v.1.15,2013-01-29 04:34:00,
2013-01-28 23:36:00,42.9,42.4,30.11,West,281,2.0,6.0,98,0.06,,,0.21,Wunderground v.1.15,2013-01-29 04:36:00,
2013-01-28 23:37:00,42.9,42.4,30.11,West,277,2.0,6.0,98,0.06,,,0.21,Wunderground v.1.15,2013-01-29 04:37:00,
2013-01-28 23:39:00,43.1,42.6,30.11,West,271,2.0,6.0,98,0.06,,,0.21,Wunderground v.1.15,2013-01-29 04:39:00,
2013-01-28 23:42:00,43.3,42.8,30.11,West,265,3.0,4.0,98,0.06,,,0.21,Wunderground v.1.15,2013-01-29 04:42:00,
2013-01-28 23:44:00,43.5,43.0,30.11,West,263,3.0,4.0,98,0.06,,,0.21,Wunderground v.1.15,2013-01-29 04:44:00,
2013-01-28 23:46:00,43.6,43.1,30.11,West,279,3.0,4.0,98,0.06,,,0.21,Wunderground v.1.15,2013-01-29 04:46:00,
2013-01-28 23:50:00,43.6,43.1,30.12,West,276,3.0,3.0,98,0.04,,,0.22,Wunderground v.1.15,2013-01-29 04:50:00,
2013-01-28 23:51:00,43.5,43.0,30.12,West,272,3.0,3.0,98,0.04,,,0.22,Wunderground v.1.15,2013-01-29 04:51:00,
2013-01-28 23:53:00,43.6,43.1,30.11,West,275,3.0,5.0,98,0.04,,,0.22,Wunderground v.1.15,2013-01-29 04:53:00,
2013-01-28 23:55:00,43.7,43.2,30.12,West,276,3.0,5.0,98,0.04,,,0.22,Wunderground v.1.15,2013-01-29 04:55:00,
2013-01-28 23:56:00,43.7,43.2,30.12,West,273,3.0,5.0,98,0.04,,,0.22,Wunderground v.1.15,2013-01-29 04:56:00,
2013-01-28 23:59:00,43.7,43.2,30.12,West,279,3.0,5.0,98,0.04,,,0.22,Wunderground v.1.15,2013-01-29 04:59:00,